<?xml version='1.0' encoding='UTF-8'?><gpx version="1.1" creator="JPX - https://github.com/jenetics/jpx" xmlns="http://www.topografix.com/GPX/1/1"><trk><trkseg><trkpt lat="9.9916098" lon="-84.1705794"><ele>990.0</ele><time>2026-04-07T21:31:16.759Z</time></trkpt><trkpt lat="9.9916191" lon="-84.1705115"><ele>990.0</ele><time>2026-04-07T21:31:22.76Z</time></trkpt><trkpt lat="9.9916713" lon="-84.1705519"><ele>990.0</ele><time>2026-04-07T21:33:55.759Z</time></trkpt><trkpt lat="9.9910949" lon="-84.1706816"><ele>990.0</ele><time>2026-04-07T21:35:32.759Z</time></trkpt><trkpt lat="9.991065" lon="-84.1706121"><ele>990.0</ele><time>2026-04-07T21:35:33.76Z</time></trkpt><trkpt lat="9.9911472" lon="-84.1705125"><ele>990.0</ele><time>2026-04-07T21:35:39.759Z</time></trkpt><trkpt lat="9.9909737" lon="-84.1705072"><ele>990.0</ele><time>2026-04-07T21:35:51.76Z</time></trkpt><trkpt lat="9.9909277" lon="-84.1704562"><ele>990.0</ele><time>2026-04-07T21:35:52.76Z</time></trkpt><trkpt lat="9.9908004" lon="-84.1703458"><ele>989.9999999999999</ele><time>2026-04-07T21:36:08.76Z</time></trkpt><trkpt lat="9.9908617" lon="-84.1703203"><ele>990.0</ele><time>2026-04-07T21:36:10.76Z</time></trkpt><trkpt lat="9.9909214" lon="-84.1702992"><ele>989.9999999999999</ele><time>2026-04-07T21:36:14.76Z</time></trkpt><trkpt lat="9.9909567" lon="-84.1702216"><ele>989.9999999999999</ele><time>2026-04-07T21:36:18.76Z</time></trkpt><trkpt lat="9.9909473" lon="-84.1701541"><ele>990.0</ele><time>2026-04-07T21:36:22.76Z</time></trkpt><trkpt lat="9.9909335" lon="-84.1700703"><ele>989.9999999999999</ele><time>2026-04-07T21:36:26.758Z</time></trkpt><trkpt lat="9.9908827" lon="-84.170026"><ele>989.9999999999999</ele><time>2026-04-07T21:36:31.759Z</time></trkpt><trkpt lat="9.9908237" lon="-84.1699932"><ele>989.3333333333334</ele><time>2026-04-07T21:36:35.758Z</time></trkpt><trkpt lat="9.9907683" lon="-84.1699488"><ele>988.6666666666667</ele><time>2026-04-07T21:36:48.758Z</time></trkpt><trkpt lat="9.9907117" lon="-84.169907"><ele>988.0</ele><time>2026-04-07T21:37:29.759Z</time></trkpt><trkpt lat="9.9907017" lon="-84.1698314"><ele>987.3333333333334</ele><time>2026-04-07T21:37:32.759Z</time></trkpt><trkpt lat="9.9907415" lon="-84.1696921"><ele>986.6666666666667</ele><time>2026-04-07T21:37:34.759Z</time></trkpt><trkpt lat="9.9907614" lon="-84.1696144"><ele>986.0</ele><time>2026-04-07T21:37:35.76Z</time></trkpt><trkpt lat="9.9907884" lon="-84.1695278"><ele>986.0</ele><time>2026-04-07T21:37:36.759Z</time></trkpt><trkpt lat="9.9908201" lon="-84.1694333"><ele>985.9999999999999</ele><time>2026-04-07T21:37:37.759Z</time></trkpt><trkpt lat="9.9908549" lon="-84.1693339"><ele>985.9999999999999</ele><time>2026-04-07T21:37:38.759Z</time></trkpt><trkpt lat="9.9908898" lon="-84.1692287"><ele>986.0</ele><time>2026-04-07T21:37:39.758Z</time></trkpt><trkpt lat="9.9909288" lon="-84.1691233"><ele>986.0</ele><time>2026-04-07T21:37:40.759Z</time></trkpt><trkpt lat="9.9909714" lon="-84.1690073"><ele>987.25</ele><time>2026-04-07T21:37:41.759Z</time></trkpt><trkpt lat="9.9910081" lon="-84.1688922"><ele>988.5</ele><time>2026-04-07T21:37:42.76Z</time></trkpt><trkpt lat="9.9910435" lon="-84.1687761"><ele>989.75</ele><time>2026-04-07T21:37:43.76Z</time></trkpt><trkpt lat="9.9910806" lon="-84.1686554"><ele>991.0</ele><time>2026-04-07T21:37:44.76Z</time></trkpt><trkpt lat="9.991115" lon="-84.1685469"><ele>991.0</ele><time>2026-04-07T21:37:45.76Z</time></trkpt><trkpt lat="9.9911469" lon="-84.1684437"><ele>990.9999999999999</ele><time>2026-04-07T21:37:46.759Z</time></trkpt><trkpt lat="9.9911839" lon="-84.1683423"><ele>990.9999999999999</ele><time>2026-04-07T21:37:47.759Z</time></trkpt><trkpt lat="9.9912183" lon="-84.1682372"><ele>991.0</ele><time>2026-04-07T21:37:48.76Z</time></trkpt><trkpt lat="9.991257" lon="-84.1681308"><ele>991.0</ele><time>2026-04-07T21:37:49.759Z</time></trkpt><trkpt lat="9.9912931" lon="-84.1680237"><ele>991.0</ele><time>2026-04-07T21:37:50.76Z</time></trkpt><trkpt lat="9.9913249" lon="-84.1679202"><ele>990.9999999999999</ele><time>2026-04-07T21:37:51.759Z</time></trkpt><trkpt lat="9.9913563" lon="-84.1678236"><ele>990.9999999999999</ele><time>2026-04-07T21:37:52.759Z</time></trkpt><trkpt lat="9.9913921" lon="-84.1677171"><ele>991.0</ele><time>2026-04-07T21:37:53.759Z</time></trkpt><trkpt lat="9.9914225" lon="-84.1676206"><ele>991.0</ele><time>2026-04-07T21:37:54.759Z</time></trkpt><trkpt lat="9.9914521" lon="-84.1675268"><ele>990.9999999999999</ele><time>2026-04-07T21:37:55.758Z</time></trkpt><trkpt lat="9.991476" lon="-84.1674382"><ele>991.0</ele><time>2026-04-07T21:37:56.758Z</time></trkpt><trkpt lat="9.991499" lon="-84.1673509"><ele>991.0</ele><time>2026-04-07T21:37:57.759Z</time></trkpt><trkpt lat="9.9915279" lon="-84.1672612"><ele>991.0</ele><time>2026-04-07T21:37:58.758Z</time></trkpt><trkpt lat="9.9915571" lon="-84.1671809"><ele>990.9999999999999</ele><time>2026-04-07T21:37:59.758Z</time></trkpt><trkpt lat="9.9915828" lon="-84.1671014"><ele>991.0</ele><time>2026-04-07T21:38:00.759Z</time></trkpt><trkpt lat="9.9916038" lon="-84.1670311"><ele>990.9999999999999</ele><time>2026-04-07T21:38:01.76Z</time></trkpt><trkpt lat="9.9916287" lon="-84.1669658"><ele>991.0</ele><time>2026-04-07T21:38:02.759Z</time></trkpt><trkpt lat="9.9916698" lon="-84.166853"><ele>991.0</ele><time>2026-04-07T21:38:04.759Z</time></trkpt><trkpt lat="9.9917069" lon="-84.1667711"><ele>991.0</ele><time>2026-04-07T21:38:06.759Z</time></trkpt><trkpt lat="9.9917495" lon="-84.1666895"><ele>990.9999999999999</ele><time>2026-04-07T21:38:08.76Z</time></trkpt><trkpt lat="9.9917538" lon="-84.16662"><ele>991.0</ele><time>2026-04-07T21:38:11.759Z</time></trkpt><trkpt lat="9.9916975" lon="-84.1665648"><ele>989.6666666666666</ele><time>2026-04-07T21:38:19.759Z</time></trkpt><trkpt lat="9.9915776" lon="-84.1665247"><ele>988.3333333333333</ele><time>2026-04-07T21:38:21.758Z</time></trkpt><trkpt lat="9.9915062" lon="-84.166494"><ele>987.0</ele><time>2026-04-07T21:38:22.759Z</time></trkpt><trkpt lat="9.9914315" lon="-84.1664637"><ele>985.6666666666667</ele><time>2026-04-07T21:38:23.759Z</time></trkpt><trkpt lat="9.9913582" lon="-84.1664316"><ele>984.3333333333334</ele><time>2026-04-07T21:38:24.758Z</time></trkpt><trkpt lat="9.9912876" lon="-84.1664017"><ele>983.0</ele><time>2026-04-07T21:38:25.759Z</time></trkpt><trkpt lat="9.9912179" lon="-84.166372"><ele>983.0000000000001</ele><time>2026-04-07T21:38:26.759Z</time></trkpt><trkpt lat="9.9911573" lon="-84.1663371"><ele>983.0</ele><time>2026-04-07T21:38:27.759Z</time></trkpt><trkpt lat="9.9911004" lon="-84.1663049"><ele>983.0</ele><time>2026-04-07T21:38:28.76Z</time></trkpt><trkpt lat="9.9910455" lon="-84.1662732"><ele>983.0</ele><time>2026-04-07T21:38:29.759Z</time></trkpt><trkpt lat="9.9909309" lon="-84.1662167"><ele>983.0000000000001</ele><time>2026-04-07T21:38:31.758Z</time></trkpt><trkpt lat="9.9908673" lon="-84.1661807"><ele>983.0</ele><time>2026-04-07T21:38:32.759Z</time></trkpt><trkpt lat="9.9907939" lon="-84.1661419"><ele>982.4</ele><time>2026-04-07T21:38:33.76Z</time></trkpt><trkpt lat="9.9907068" lon="-84.1661077"><ele>981.8</ele><time>2026-04-07T21:38:34.76Z</time></trkpt><trkpt lat="9.9906073" lon="-84.1660712"><ele>981.2</ele><time>2026-04-07T21:38:35.759Z</time></trkpt><trkpt lat="9.9905107" lon="-84.1660301"><ele>980.6</ele><time>2026-04-07T21:38:36.758Z</time></trkpt><trkpt lat="9.9904118" lon="-84.1659935"><ele>980.0</ele><time>2026-04-07T21:38:37.76Z</time></trkpt><trkpt lat="9.9903179" lon="-84.165961"><ele>980.0000000000001</ele><time>2026-04-07T21:38:38.758Z</time></trkpt><trkpt lat="9.9902357" lon="-84.1659238"><ele>980.0</ele><time>2026-04-07T21:38:39.76Z</time></trkpt><trkpt lat="9.9901573" lon="-84.16589"><ele>980.0</ele><time>2026-04-07T21:38:40.76Z</time></trkpt><trkpt lat="9.9900838" lon="-84.1658553"><ele>980.0</ele><time>2026-04-07T21:38:41.76Z</time></trkpt><trkpt lat="9.9899879" lon="-84.1658119"><ele>980.0000000000001</ele><time>2026-04-07T21:38:43.758Z</time></trkpt><trkpt lat="9.9899194" lon="-84.1657728"><ele>980.0</ele><time>2026-04-07T21:38:46.76Z</time></trkpt><trkpt lat="9.9898472" lon="-84.1657437"><ele>979.1666666666667</ele><time>2026-04-07T21:38:50.759Z</time></trkpt><trkpt lat="9.9897856" lon="-84.1657115"><ele>978.3333333333334</ele><time>2026-04-07T21:38:55.759Z</time></trkpt><trkpt lat="9.9897287" lon="-84.1656807"><ele>977.5</ele><time>2026-04-07T21:38:58.759Z</time></trkpt><trkpt lat="9.9896565" lon="-84.1656431"><ele>976.6666666666667</ele><time>2026-04-07T21:39:00.758Z</time></trkpt><trkpt lat="9.9895687" lon="-84.1656014"><ele>975.8333333333334</ele><time>2026-04-07T21:39:02.758Z</time></trkpt><trkpt lat="9.9894795" lon="-84.1655578"><ele>975.0</ele><time>2026-04-07T21:39:04.758Z</time></trkpt><trkpt lat="9.9893776" lon="-84.165522"><ele>974.6666666666666</ele><time>2026-04-07T21:39:06.758Z</time></trkpt><trkpt lat="9.9892658" lon="-84.1654827"><ele>974.3333333333333</ele><time>2026-04-07T21:39:08.76Z</time></trkpt><trkpt lat="9.9891994" lon="-84.1654549"><ele>974.0</ele><time>2026-04-07T21:39:09.758Z</time></trkpt><trkpt lat="9.9891266" lon="-84.1654286"><ele>973.6666666666666</ele><time>2026-04-07T21:39:10.759Z</time></trkpt><trkpt lat="9.9890449" lon="-84.1653984"><ele>973.3333333333333</ele><time>2026-04-07T21:39:11.759Z</time></trkpt><trkpt lat="9.9889606" lon="-84.1653639"><ele>973.0</ele><time>2026-04-07T21:39:12.759Z</time></trkpt><trkpt lat="9.9888647" lon="-84.1653283"><ele>973.0</ele><time>2026-04-07T21:39:13.76Z</time></trkpt><trkpt lat="9.9887663" lon="-84.165292"><ele>973.0</ele><time>2026-04-07T21:39:14.76Z</time></trkpt><trkpt lat="9.9886556" lon="-84.1652512"><ele>973.0</ele><time>2026-04-07T21:39:15.758Z</time></trkpt><trkpt lat="9.988545" lon="-84.165215"><ele>973.0</ele><time>2026-04-07T21:39:16.76Z</time></trkpt><trkpt lat="9.9884411" lon="-84.1651774"><ele>973.0</ele><time>2026-04-07T21:39:17.758Z</time></trkpt><trkpt lat="9.9883246" lon="-84.1651369"><ele>972.75</ele><time>2026-04-07T21:39:18.759Z</time></trkpt><trkpt lat="9.9882089" lon="-84.1650938"><ele>972.5</ele><time>2026-04-07T21:39:19.759Z</time></trkpt><trkpt lat="9.9880798" lon="-84.165047"><ele>972.25</ele><time>2026-04-07T21:39:20.757Z</time></trkpt><trkpt lat="9.9879463" lon="-84.1649991"><ele>972.0</ele><time>2026-04-07T21:39:21.759Z</time></trkpt><trkpt lat="9.9878196" lon="-84.1649516"><ele>972.0</ele><time>2026-04-07T21:39:22.758Z</time></trkpt><trkpt lat="9.987686" lon="-84.1649013"><ele>972.0</ele><time>2026-04-07T21:39:23.758Z</time></trkpt><trkpt lat="9.9875521" lon="-84.1648491"><ele>972.0</ele><time>2026-04-07T21:39:24.757Z</time></trkpt><trkpt lat="9.9874167" lon="-84.1647979"><ele>972.0</ele><time>2026-04-07T21:39:25.758Z</time></trkpt><trkpt lat="9.9872756" lon="-84.1647451"><ele>972.75</ele><time>2026-04-07T21:39:26.759Z</time></trkpt><trkpt lat="9.9871422" lon="-84.1646954"><ele>973.5</ele><time>2026-04-07T21:39:27.76Z</time></trkpt><trkpt lat="9.9870109" lon="-84.1646463"><ele>974.25</ele><time>2026-04-07T21:39:28.759Z</time></trkpt><trkpt lat="9.9868879" lon="-84.1645984"><ele>975.0</ele><time>2026-04-07T21:39:29.759Z</time></trkpt><trkpt lat="9.9867512" lon="-84.1645534"><ele>975.25</ele><time>2026-04-07T21:39:30.759Z</time></trkpt><trkpt lat="9.9866219" lon="-84.1645039"><ele>975.5</ele><time>2026-04-07T21:39:31.758Z</time></trkpt><trkpt lat="9.9864891" lon="-84.1644515"><ele>975.75</ele><time>2026-04-07T21:39:32.759Z</time></trkpt><trkpt lat="9.9863533" lon="-84.1644018"><ele>976.0</ele><time>2026-04-07T21:39:33.758Z</time></trkpt><trkpt lat="9.9862181" lon="-84.1643523"><ele>976.0</ele><time>2026-04-07T21:39:34.759Z</time></trkpt><trkpt lat="9.9860837" lon="-84.1642968"><ele>976.0</ele><time>2026-04-07T21:39:35.759Z</time></trkpt><trkpt lat="9.9859485" lon="-84.1642418"><ele>976.0</ele><time>2026-04-07T21:39:36.759Z</time></trkpt><trkpt lat="9.9858127" lon="-84.1641892"><ele>976.0</ele><time>2026-04-07T21:39:37.759Z</time></trkpt><trkpt lat="9.9856745" lon="-84.1641335"><ele>977.5</ele><time>2026-04-07T21:39:38.758Z</time></trkpt><trkpt lat="9.9855354" lon="-84.1640808"><ele>979.0</ele><time>2026-04-07T21:39:39.76Z</time></trkpt><trkpt lat="9.9853998" lon="-84.164027"><ele>980.5</ele><time>2026-04-07T21:39:40.759Z</time></trkpt><trkpt lat="9.9852601" lon="-84.1639763"><ele>982.0</ele><time>2026-04-07T21:39:41.759Z</time></trkpt><trkpt lat="9.9851215" lon="-84.1639194"><ele>982.75</ele><time>2026-04-07T21:39:42.759Z</time></trkpt><trkpt lat="9.9849805" lon="-84.1638625"><ele>983.5</ele><time>2026-04-07T21:39:43.759Z</time></trkpt><trkpt lat="9.9848408" lon="-84.1638078"><ele>984.25</ele><time>2026-04-07T21:39:44.758Z</time></trkpt><trkpt lat="9.9847037" lon="-84.1637581"><ele>985.0</ele><time>2026-04-07T21:39:45.757Z</time></trkpt><trkpt lat="9.9845759" lon="-84.1637118"><ele>985.0</ele><time>2026-04-07T21:39:46.759Z</time></trkpt><trkpt lat="9.9844444" lon="-84.1636629"><ele>985.0</ele><time>2026-04-07T21:39:47.76Z</time></trkpt><trkpt lat="9.9843138" lon="-84.1636144"><ele>985.0</ele><time>2026-04-07T21:39:48.76Z</time></trkpt><trkpt lat="9.9841804" lon="-84.1635694"><ele>985.0</ele><time>2026-04-07T21:39:49.758Z</time></trkpt><trkpt lat="9.9840448" lon="-84.1635204"><ele>986.0</ele><time>2026-04-07T21:39:50.758Z</time></trkpt><trkpt lat="9.9839104" lon="-84.1634734"><ele>987.0</ele><time>2026-04-07T21:39:51.759Z</time></trkpt><trkpt lat="9.9837865" lon="-84.1634292"><ele>988.0</ele><time>2026-04-07T21:39:52.759Z</time></trkpt><trkpt lat="9.9836663" lon="-84.1633874"><ele>989.0</ele><time>2026-04-07T21:39:53.759Z</time></trkpt><trkpt lat="9.9835492" lon="-84.1633438"><ele>989.0</ele><time>2026-04-07T21:39:54.759Z</time></trkpt><trkpt lat="9.9834432" lon="-84.1633039"><ele>989.0</ele><time>2026-04-07T21:39:55.758Z</time></trkpt><trkpt lat="9.9833331" lon="-84.1632657"><ele>989.0</ele><time>2026-04-07T21:39:56.76Z</time></trkpt><trkpt lat="9.983223" lon="-84.1632239"><ele>989.0</ele><time>2026-04-07T21:39:57.759Z</time></trkpt><trkpt lat="9.9831101" lon="-84.1631832"><ele>991.0</ele><time>2026-04-07T21:39:58.759Z</time></trkpt><trkpt lat="9.9829947" lon="-84.1631436"><ele>993.0</ele><time>2026-04-07T21:39:59.758Z</time></trkpt><trkpt lat="9.9828836" lon="-84.1630985"><ele>995.0</ele><time>2026-04-07T21:40:00.758Z</time></trkpt><trkpt lat="9.9827665" lon="-84.1630484"><ele>997.0</ele><time>2026-04-07T21:40:01.76Z</time></trkpt><trkpt lat="9.9826502" lon="-84.1629956"><ele>997.0</ele><time>2026-04-07T21:40:02.759Z</time></trkpt><trkpt lat="9.9825332" lon="-84.1629323"><ele>997.0</ele><time>2026-04-07T21:40:03.758Z</time></trkpt><trkpt lat="9.9824185" lon="-84.1628776"><ele>997.0</ele><time>2026-04-07T21:40:04.76Z</time></trkpt><trkpt lat="9.9823006" lon="-84.1628061"><ele>997.0</ele><time>2026-04-07T21:40:05.759Z</time></trkpt><trkpt lat="9.9821935" lon="-84.1627406"><ele>997.5</ele><time>2026-04-07T21:40:06.76Z</time></trkpt><trkpt lat="9.9820825" lon="-84.162673"><ele>998.0</ele><time>2026-04-07T21:40:07.758Z</time></trkpt><trkpt lat="9.9819724" lon="-84.162606"><ele>998.5</ele><time>2026-04-07T21:40:08.759Z</time></trkpt><trkpt lat="9.9818573" lon="-84.162538"><ele>999.0</ele><time>2026-04-07T21:40:09.759Z</time></trkpt><trkpt lat="9.9817496" lon="-84.162471"><ele>999.5</ele><time>2026-04-07T21:40:10.758Z</time></trkpt><trkpt lat="9.981646" lon="-84.1624053"><ele>1000.0</ele><time>2026-04-07T21:40:11.76Z</time></trkpt><trkpt lat="9.9815318" lon="-84.1623266"><ele>1000.5</ele><time>2026-04-07T21:40:12.759Z</time></trkpt><trkpt lat="9.9814115" lon="-84.1622355"><ele>1001.0</ele><time>2026-04-07T21:40:13.758Z</time></trkpt><trkpt lat="9.9813038" lon="-84.1621479"><ele>1001.25</ele><time>2026-04-07T21:40:14.76Z</time></trkpt><trkpt lat="9.9811991" lon="-84.1620587"><ele>1001.5</ele><time>2026-04-07T21:40:15.757Z</time></trkpt><trkpt lat="9.9810826" lon="-84.1619694"><ele>1001.75</ele><time>2026-04-07T21:40:16.758Z</time></trkpt><trkpt lat="9.9809718" lon="-84.1618711"><ele>1002.0</ele><time>2026-04-07T21:40:17.759Z</time></trkpt><trkpt lat="9.9808589" lon="-84.1617672"><ele>1000.75</ele><time>2026-04-07T21:40:18.758Z</time></trkpt><trkpt lat="9.9807453" lon="-84.1616621"><ele>999.5</ele><time>2026-04-07T21:40:19.76Z</time></trkpt><trkpt lat="9.9806428" lon="-84.161552"><ele>998.25</ele><time>2026-04-07T21:40:20.759Z</time></trkpt><trkpt lat="9.9805447" lon="-84.1614424"><ele>997.0</ele><time>2026-04-07T21:40:21.76Z</time></trkpt><trkpt lat="9.9804502" lon="-84.1613299"><ele>997.0</ele><time>2026-04-07T21:40:22.759Z</time></trkpt><trkpt lat="9.9803586" lon="-84.1612088"><ele>997.0</ele><time>2026-04-07T21:40:23.759Z</time></trkpt><trkpt lat="9.9802636" lon="-84.1610809"><ele>997.0</ele><time>2026-04-07T21:40:24.758Z</time></trkpt><trkpt lat="9.9801713" lon="-84.1609498"><ele>997.0</ele><time>2026-04-07T21:40:25.759Z</time></trkpt><trkpt lat="9.980084" lon="-84.1608247"><ele>997.0</ele><time>2026-04-07T21:40:26.757Z</time></trkpt><trkpt lat="9.980002" lon="-84.1606946"><ele>997.0</ele><time>2026-04-07T21:40:27.758Z</time></trkpt><trkpt lat="9.9799238" lon="-84.1605704"><ele>997.0</ele><time>2026-04-07T21:40:28.759Z</time></trkpt><trkpt lat="9.9798505" lon="-84.1604458"><ele>995.75</ele><time>2026-04-07T21:40:29.759Z</time></trkpt><trkpt lat="9.9797771" lon="-84.1603161"><ele>994.5</ele><time>2026-04-07T21:40:30.759Z</time></trkpt><trkpt lat="9.9797065" lon="-84.1601891"><ele>993.25</ele><time>2026-04-07T21:40:31.758Z</time></trkpt><trkpt lat="9.9796393" lon="-84.1600665"><ele>992.0</ele><time>2026-04-07T21:40:32.759Z</time></trkpt><trkpt lat="9.9795682" lon="-84.1599397"><ele>991.3333333333334</ele><time>2026-04-07T21:40:33.758Z</time></trkpt><trkpt lat="9.9794953" lon="-84.1598075"><ele>990.6666666666667</ele><time>2026-04-07T21:40:34.759Z</time></trkpt><trkpt lat="9.9794196" lon="-84.1596675"><ele>990.0</ele><time>2026-04-07T21:40:35.759Z</time></trkpt><trkpt lat="9.9793446" lon="-84.1595314"><ele>990.0</ele><time>2026-04-07T21:40:36.759Z</time></trkpt><trkpt lat="9.9792738" lon="-84.1593994"><ele>990.0</ele><time>2026-04-07T21:40:37.759Z</time></trkpt><trkpt lat="9.9792057" lon="-84.1592674"><ele>990.0</ele><time>2026-04-07T21:40:38.759Z</time></trkpt><trkpt lat="9.979134" lon="-84.1591349"><ele>990.0</ele><time>2026-04-07T21:40:39.758Z</time></trkpt><trkpt lat="9.9790514" lon="-84.1589911"><ele>988.6666666666667</ele><time>2026-04-07T21:40:40.758Z</time></trkpt><trkpt lat="9.9789741" lon="-84.1588494"><ele>987.3333333333334</ele><time>2026-04-07T21:40:41.759Z</time></trkpt><trkpt lat="9.9788981" lon="-84.1587151"><ele>986.0</ele><time>2026-04-07T21:40:42.759Z</time></trkpt><trkpt lat="9.9788259" lon="-84.1585771"><ele>986.0</ele><time>2026-04-07T21:40:43.759Z</time></trkpt><trkpt lat="9.9787535" lon="-84.1584439"><ele>986.0</ele><time>2026-04-07T21:40:44.758Z</time></trkpt><trkpt lat="9.9786817" lon="-84.1583048"><ele>986.0</ele><time>2026-04-07T21:40:45.759Z</time></trkpt><trkpt lat="9.9786049" lon="-84.1581669"><ele>987.6666666666667</ele><time>2026-04-07T21:40:46.759Z</time></trkpt><trkpt lat="9.9785282" lon="-84.1580265"><ele>989.3333333333333</ele><time>2026-04-07T21:40:47.759Z</time></trkpt><trkpt lat="9.978448" lon="-84.1578809"><ele>991.0</ele><time>2026-04-07T21:40:48.758Z</time></trkpt><trkpt lat="9.9783704" lon="-84.1577387"><ele>990.6666666666666</ele><time>2026-04-07T21:40:49.758Z</time></trkpt><trkpt lat="9.978292" lon="-84.1575953"><ele>990.3333333333333</ele><time>2026-04-07T21:40:50.759Z</time></trkpt><trkpt lat="9.9782106" lon="-84.1574518"><ele>990.0</ele><time>2026-04-07T21:40:51.758Z</time></trkpt><trkpt lat="9.9781342" lon="-84.1573038"><ele>990.0</ele><time>2026-04-07T21:40:52.758Z</time></trkpt><trkpt lat="9.9780478" lon="-84.1571495"><ele>990.0</ele><time>2026-04-07T21:40:53.759Z</time></trkpt><trkpt lat="9.9779715" lon="-84.1570024"><ele>990.0</ele><time>2026-04-07T21:40:54.758Z</time></trkpt><trkpt lat="9.977894" lon="-84.156848"><ele>990.0</ele><time>2026-04-07T21:40:55.76Z</time></trkpt><trkpt lat="9.9778126" lon="-84.1566952"><ele>990.0</ele><time>2026-04-07T21:40:56.758Z</time></trkpt><trkpt lat="9.9777306" lon="-84.1565443"><ele>990.0</ele><time>2026-04-07T21:40:57.758Z</time></trkpt><trkpt lat="9.9776441" lon="-84.1563859"><ele>991.3333333333333</ele><time>2026-04-07T21:40:58.76Z</time></trkpt><trkpt lat="9.9775618" lon="-84.1562268"><ele>992.6666666666666</ele><time>2026-04-07T21:40:59.759Z</time></trkpt><trkpt lat="9.9774766" lon="-84.1560652"><ele>994.0</ele><time>2026-04-07T21:41:00.759Z</time></trkpt><trkpt lat="9.977389" lon="-84.1559017"><ele>992.3333333333333</ele><time>2026-04-07T21:41:01.758Z</time></trkpt><trkpt lat="9.9772995" lon="-84.1557357"><ele>990.6666666666667</ele><time>2026-04-07T21:41:02.758Z</time></trkpt><trkpt lat="9.9772087" lon="-84.1555764"><ele>989.0</ele><time>2026-04-07T21:41:03.759Z</time></trkpt><trkpt lat="9.9771245" lon="-84.1554206"><ele>989.0</ele><time>2026-04-07T21:41:04.758Z</time></trkpt><trkpt lat="9.9770421" lon="-84.1552675"><ele>989.0</ele><time>2026-04-07T21:41:05.759Z</time></trkpt><trkpt lat="9.9769593" lon="-84.155111"><ele>989.0</ele><time>2026-04-07T21:41:06.76Z</time></trkpt><trkpt lat="9.9768705" lon="-84.1549476"><ele>989.6666666666667</ele><time>2026-04-07T21:41:07.758Z</time></trkpt><trkpt lat="9.976781" lon="-84.1547845"><ele>990.3333333333333</ele><time>2026-04-07T21:41:08.758Z</time></trkpt><trkpt lat="9.9766966" lon="-84.1546275"><ele>991.0</ele><time>2026-04-07T21:41:09.758Z</time></trkpt><trkpt lat="9.9766154" lon="-84.1544753"><ele>988.3333333333333</ele><time>2026-04-07T21:41:10.758Z</time></trkpt><trkpt lat="9.9765373" lon="-84.1543268"><ele>985.6666666666667</ele><time>2026-04-07T21:41:11.759Z</time></trkpt><trkpt lat="9.9764626" lon="-84.1541843"><ele>983.0</ele><time>2026-04-07T21:41:12.759Z</time></trkpt><trkpt lat="9.9763856" lon="-84.1540474"><ele>983.3333333333334</ele><time>2026-04-07T21:41:13.758Z</time></trkpt><trkpt lat="9.9763108" lon="-84.1539097"><ele>983.6666666666667</ele><time>2026-04-07T21:41:14.759Z</time></trkpt><trkpt lat="9.9762376" lon="-84.1537687"><ele>984.0</ele><time>2026-04-07T21:41:15.759Z</time></trkpt><trkpt lat="9.9761636" lon="-84.1536377"><ele>984.0</ele><time>2026-04-07T21:41:16.758Z</time></trkpt><trkpt lat="9.9760935" lon="-84.1535067"><ele>984.0</ele><time>2026-04-07T21:41:17.759Z</time></trkpt><trkpt lat="9.9760202" lon="-84.1533733"><ele>984.0</ele><time>2026-04-07T21:41:18.759Z</time></trkpt><trkpt lat="9.9759512" lon="-84.1532456"><ele>984.0</ele><time>2026-04-07T21:41:19.758Z</time></trkpt><trkpt lat="9.9758845" lon="-84.1531213"><ele>984.0</ele><time>2026-04-07T21:41:20.758Z</time></trkpt><trkpt lat="9.975812" lon="-84.1529951"><ele>984.0</ele><time>2026-04-07T21:41:21.758Z</time></trkpt><trkpt lat="9.9757447" lon="-84.1528725"><ele>984.0</ele><time>2026-04-07T21:41:22.759Z</time></trkpt><trkpt lat="9.9756746" lon="-84.152746"><ele>984.0</ele><time>2026-04-07T21:41:23.758Z</time></trkpt><trkpt lat="9.9756094" lon="-84.1526214"><ele>984.0</ele><time>2026-04-07T21:41:24.759Z</time></trkpt><trkpt lat="9.9755437" lon="-84.1524992"><ele>984.0</ele><time>2026-04-07T21:41:25.759Z</time></trkpt><trkpt lat="9.9754787" lon="-84.1523799"><ele>984.0</ele><time>2026-04-07T21:41:26.758Z</time></trkpt><trkpt lat="9.9754148" lon="-84.1522555"><ele>984.0</ele><time>2026-04-07T21:41:27.758Z</time></trkpt><trkpt lat="9.9753444" lon="-84.152136"><ele>984.5</ele><time>2026-04-07T21:41:28.759Z</time></trkpt><trkpt lat="9.9752789" lon="-84.1520136"><ele>985.0</ele><time>2026-04-07T21:41:29.759Z</time></trkpt><trkpt lat="9.9752103" lon="-84.1518887"><ele>985.5</ele><time>2026-04-07T21:41:30.759Z</time></trkpt><trkpt lat="9.9751444" lon="-84.1517673"><ele>986.0</ele><time>2026-04-07T21:41:31.759Z</time></trkpt><trkpt lat="9.9750831" lon="-84.1516478"><ele>985.0</ele><time>2026-04-07T21:41:32.759Z</time></trkpt><trkpt lat="9.9750162" lon="-84.1515314"><ele>984.0</ele><time>2026-04-07T21:41:33.759Z</time></trkpt><trkpt lat="9.974949" lon="-84.1514139"><ele>983.0</ele><time>2026-04-07T21:41:34.758Z</time></trkpt><trkpt lat="9.9748834" lon="-84.1512921"><ele>982.0</ele><time>2026-04-07T21:41:35.759Z</time></trkpt><trkpt lat="9.9748152" lon="-84.1511658"><ele>982.0</ele><time>2026-04-07T21:41:36.759Z</time></trkpt><trkpt lat="9.9747473" lon="-84.1510409"><ele>982.0</ele><time>2026-04-07T21:41:37.758Z</time></trkpt><trkpt lat="9.9746751" lon="-84.1509119"><ele>982.0</ele><time>2026-04-07T21:41:38.758Z</time></trkpt><trkpt lat="9.9746042" lon="-84.1507732"><ele>982.0</ele><time>2026-04-07T21:41:39.759Z</time></trkpt><trkpt lat="9.974536" lon="-84.1506321"><ele>982.6666666666666</ele><time>2026-04-07T21:41:40.758Z</time></trkpt><trkpt lat="9.9744607" lon="-84.1504812"><ele>983.3333333333333</ele><time>2026-04-07T21:41:41.758Z</time></trkpt><trkpt lat="9.9743893" lon="-84.1503344"><ele>984.0</ele><time>2026-04-07T21:41:42.759Z</time></trkpt><trkpt lat="9.9743223" lon="-84.1501872"><ele>984.0</ele><time>2026-04-07T21:41:43.757Z</time></trkpt><trkpt lat="9.974257" lon="-84.1500432"><ele>984.0</ele><time>2026-04-07T21:41:44.759Z</time></trkpt><trkpt lat="9.9741855" lon="-84.1498902"><ele>984.0</ele><time>2026-04-07T21:41:45.757Z</time></trkpt><trkpt lat="9.9741181" lon="-84.1497366"><ele>985.3333333333333</ele><time>2026-04-07T21:41:46.758Z</time></trkpt><trkpt lat="9.9740496" lon="-84.1495812"><ele>986.6666666666666</ele><time>2026-04-07T21:41:47.759Z</time></trkpt><trkpt lat="9.9739849" lon="-84.1494294"><ele>988.0</ele><time>2026-04-07T21:41:48.758Z</time></trkpt><trkpt lat="9.9739256" lon="-84.1492848"><ele>988.0</ele><time>2026-04-07T21:41:49.758Z</time></trkpt><trkpt lat="9.973869" lon="-84.1491406"><ele>988.0</ele><time>2026-04-07T21:41:50.759Z</time></trkpt><trkpt lat="9.9738178" lon="-84.1490057"><ele>988.0</ele><time>2026-04-07T21:41:51.757Z</time></trkpt><trkpt lat="9.9737707" lon="-84.1488776"><ele>988.0</ele><time>2026-04-07T21:41:52.758Z</time></trkpt><trkpt lat="9.9737243" lon="-84.1487555"><ele>989.0</ele><time>2026-04-07T21:41:53.756Z</time></trkpt><trkpt lat="9.9736795" lon="-84.1486392"><ele>990.0</ele><time>2026-04-07T21:41:54.759Z</time></trkpt><trkpt lat="9.9736353" lon="-84.1485131"><ele>991.0</ele><time>2026-04-07T21:41:55.759Z</time></trkpt><trkpt lat="9.9735912" lon="-84.1483791"><ele>992.0</ele><time>2026-04-07T21:41:56.757Z</time></trkpt><trkpt lat="9.9735458" lon="-84.1482426"><ele>992.0</ele><time>2026-04-07T21:41:57.759Z</time></trkpt><trkpt lat="9.9734982" lon="-84.1481041"><ele>992.0</ele><time>2026-04-07T21:41:58.759Z</time></trkpt><trkpt lat="9.9734448" lon="-84.1479549"><ele>992.0</ele><time>2026-04-07T21:41:59.758Z</time></trkpt><trkpt lat="9.9733973" lon="-84.1478171"><ele>992.0</ele><time>2026-04-07T21:42:00.758Z</time></trkpt><trkpt lat="9.973349" lon="-84.1476884"><ele>992.0</ele><time>2026-04-07T21:42:01.758Z</time></trkpt><trkpt lat="9.9732974" lon="-84.1475558"><ele>992.0</ele><time>2026-04-07T21:42:02.758Z</time></trkpt><trkpt lat="9.9732516" lon="-84.1474213"><ele>992.0</ele><time>2026-04-07T21:42:03.758Z</time></trkpt><trkpt lat="9.9731987" lon="-84.1472817"><ele>992.0</ele><time>2026-04-07T21:42:04.757Z</time></trkpt><trkpt lat="9.9731541" lon="-84.1471506"><ele>993.5</ele><time>2026-04-07T21:42:05.759Z</time></trkpt><trkpt lat="9.9731074" lon="-84.1470267"><ele>995.0</ele><time>2026-04-07T21:42:06.759Z</time></trkpt><trkpt lat="9.9730621" lon="-84.1469021"><ele>996.5</ele><time>2026-04-07T21:42:07.758Z</time></trkpt><trkpt lat="9.9730115" lon="-84.1467742"><ele>998.0</ele><time>2026-04-07T21:42:08.758Z</time></trkpt><trkpt lat="9.9729618" lon="-84.1466418"><ele>998.25</ele><time>2026-04-07T21:42:09.758Z</time></trkpt><trkpt lat="9.972911" lon="-84.1465081"><ele>998.5</ele><time>2026-04-07T21:42:10.757Z</time></trkpt><trkpt lat="9.972858" lon="-84.146372"><ele>998.75</ele><time>2026-04-07T21:42:11.759Z</time></trkpt><trkpt lat="9.9728022" lon="-84.1462372"><ele>999.0</ele><time>2026-04-07T21:42:12.759Z</time></trkpt><trkpt lat="9.9727514" lon="-84.1461052"><ele>999.0</ele><time>2026-04-07T21:42:13.759Z</time></trkpt><trkpt lat="9.9727021" lon="-84.1459724"><ele>999.0</ele><time>2026-04-07T21:42:14.759Z</time></trkpt><trkpt lat="9.9726508" lon="-84.1458321"><ele>999.0</ele><time>2026-04-07T21:42:15.758Z</time></trkpt><trkpt lat="9.9725926" lon="-84.1456879"><ele>999.0</ele><time>2026-04-07T21:42:16.759Z</time></trkpt><trkpt lat="9.9725194" lon="-84.1455135"><ele>997.3333333333333</ele><time>2026-04-07T21:42:17.758Z</time></trkpt><trkpt lat="9.972442" lon="-84.1453311"><ele>995.6666666666666</ele><time>2026-04-07T21:42:18.759Z</time></trkpt><trkpt lat="9.9723646" lon="-84.1451348"><ele>994.0</ele><time>2026-04-07T21:42:19.758Z</time></trkpt><trkpt lat="9.9722936" lon="-84.1449443"><ele>994.0</ele><time>2026-04-07T21:42:20.758Z</time></trkpt><trkpt lat="9.9722227" lon="-84.144763"><ele>994.0</ele><time>2026-04-07T21:42:21.758Z</time></trkpt><trkpt lat="9.9721564" lon="-84.1445898"><ele>994.0</ele><time>2026-04-07T21:42:22.758Z</time></trkpt><trkpt lat="9.9720931" lon="-84.1444164"><ele>994.0</ele><time>2026-04-07T21:42:23.759Z</time></trkpt><trkpt lat="9.9720285" lon="-84.1442475"><ele>994.0</ele><time>2026-04-07T21:42:24.758Z</time></trkpt><trkpt lat="9.9719654" lon="-84.1440773"><ele>994.0</ele><time>2026-04-07T21:42:25.758Z</time></trkpt><trkpt lat="9.9719026" lon="-84.1439123"><ele>993.0</ele><time>2026-04-07T21:42:26.759Z</time></trkpt><trkpt lat="9.9718427" lon="-84.143752"><ele>992.0</ele><time>2026-04-07T21:42:27.757Z</time></trkpt><trkpt lat="9.9717778" lon="-84.1435879"><ele>991.0</ele><time>2026-04-07T21:42:28.758Z</time></trkpt><trkpt lat="9.971717" lon="-84.1434232"><ele>991.0</ele><time>2026-04-07T21:42:29.759Z</time></trkpt><trkpt lat="9.9716561" lon="-84.1432719"><ele>991.0</ele><time>2026-04-07T21:42:30.758Z</time></trkpt><trkpt lat="9.9716026" lon="-84.143109"><ele>991.0</ele><time>2026-04-07T21:42:31.758Z</time></trkpt><trkpt lat="9.9715463" lon="-84.1429445"><ele>991.0</ele><time>2026-04-07T21:42:32.759Z</time></trkpt><trkpt lat="9.9714937" lon="-84.1427752"><ele>991.0</ele><time>2026-04-07T21:42:33.758Z</time></trkpt><trkpt lat="9.9714413" lon="-84.1426168"><ele>991.0</ele><time>2026-04-07T21:42:34.758Z</time></trkpt><trkpt lat="9.9713854" lon="-84.1424608"><ele>992.0</ele><time>2026-04-07T21:42:35.758Z</time></trkpt><trkpt lat="9.971334" lon="-84.1423297"><ele>993.0</ele><time>2026-04-07T21:42:36.758Z</time></trkpt><trkpt lat="9.9712784" lon="-84.1421897"><ele>994.0</ele><time>2026-04-07T21:42:37.758Z</time></trkpt><trkpt lat="9.9712249" lon="-84.1420456"><ele>995.0</ele><time>2026-04-07T21:42:38.759Z</time></trkpt><trkpt lat="9.9711706" lon="-84.1419063"><ele>995.0</ele><time>2026-04-07T21:42:39.759Z</time></trkpt><trkpt lat="9.9711126" lon="-84.1417727"><ele>995.0</ele><time>2026-04-07T21:42:40.758Z</time></trkpt><trkpt lat="9.9710525" lon="-84.1416426"><ele>995.0</ele><time>2026-04-07T21:42:41.758Z</time></trkpt><trkpt lat="9.9709992" lon="-84.141516"><ele>995.0</ele><time>2026-04-07T21:42:42.758Z</time></trkpt><trkpt lat="9.970952" lon="-84.1413972"><ele>995.25</ele><time>2026-04-07T21:42:43.759Z</time></trkpt><trkpt lat="9.9709022" lon="-84.1412854"><ele>995.5</ele><time>2026-04-07T21:42:44.758Z</time></trkpt><trkpt lat="9.9708601" lon="-84.1411779"><ele>995.75</ele><time>2026-04-07T21:42:45.759Z</time></trkpt><trkpt lat="9.9708126" lon="-84.1410719"><ele>996.0</ele><time>2026-04-07T21:42:46.757Z</time></trkpt><trkpt lat="9.970769" lon="-84.140971"><ele>999.1999999999999</ele><time>2026-04-07T21:42:47.759Z</time></trkpt><trkpt lat="9.970728" lon="-84.1408794"><ele>1002.3999999999999</ele><time>2026-04-07T21:42:48.758Z</time></trkpt><trkpt lat="9.9706868" lon="-84.1407888"><ele>1005.6</ele><time>2026-04-07T21:42:49.758Z</time></trkpt><trkpt lat="9.970644" lon="-84.140697"><ele>1008.8</ele><time>2026-04-07T21:42:50.758Z</time></trkpt><trkpt lat="9.9706004" lon="-84.1406059"><ele>1012.0</ele><time>2026-04-07T21:42:51.758Z</time></trkpt><trkpt lat="9.9705539" lon="-84.140511"><ele>1012.0</ele><time>2026-04-07T21:42:52.759Z</time></trkpt><trkpt lat="9.9705098" lon="-84.1404157"><ele>1012.0</ele><time>2026-04-07T21:42:53.759Z</time></trkpt><trkpt lat="9.9704619" lon="-84.1403188"><ele>1012.0</ele><time>2026-04-07T21:42:54.758Z</time></trkpt><trkpt lat="9.9704156" lon="-84.1402302"><ele>1012.0</ele><time>2026-04-07T21:42:55.759Z</time></trkpt><trkpt lat="9.9703734" lon="-84.1401463"><ele>1012.0</ele><time>2026-04-07T21:42:56.759Z</time></trkpt><trkpt lat="9.9703315" lon="-84.1400643"><ele>1012.0</ele><time>2026-04-07T21:42:57.756Z</time></trkpt><trkpt lat="9.9702867" lon="-84.1399737"><ele>1012.0</ele><time>2026-04-07T21:42:58.758Z</time></trkpt><trkpt lat="9.9702399" lon="-84.1398902"><ele>1012.0</ele><time>2026-04-07T21:42:59.758Z</time></trkpt><trkpt lat="9.9701996" lon="-84.1398113"><ele>1012.0</ele><time>2026-04-07T21:43:00.758Z</time></trkpt><trkpt lat="9.9701556" lon="-84.139728"><ele>1012.0</ele><time>2026-04-07T21:43:01.758Z</time></trkpt><trkpt lat="9.9701088" lon="-84.1396456"><ele>1012.1666666666666</ele><time>2026-04-07T21:43:02.758Z</time></trkpt><trkpt lat="9.9700694" lon="-84.1395715"><ele>1012.3333333333333</ele><time>2026-04-07T21:43:03.758Z</time></trkpt><trkpt lat="9.9700338" lon="-84.1395056"><ele>1012.5</ele><time>2026-04-07T21:43:04.758Z</time></trkpt><trkpt lat="9.9700032" lon="-84.1394467"><ele>1012.6666666666667</ele><time>2026-04-07T21:43:05.758Z</time></trkpt><trkpt lat="9.9699739" lon="-84.1393887"><ele>1012.8333333333334</ele><time>2026-04-07T21:43:06.759Z</time></trkpt><trkpt lat="9.9699442" lon="-84.139332"><ele>1013.0</ele><time>2026-04-07T21:43:07.758Z</time></trkpt><trkpt lat="9.9698908" lon="-84.1392289"><ele>1014.2</ele><time>2026-04-07T21:43:09.759Z</time></trkpt><trkpt lat="9.9698229" lon="-84.1391138"><ele>1015.4</ele><time>2026-04-07T21:43:11.757Z</time></trkpt><trkpt lat="9.9697906" lon="-84.1390467"><ele>1016.6000000000001</ele><time>2026-04-07T21:43:12.758Z</time></trkpt><trkpt lat="9.9697374" lon="-84.1389484"><ele>1017.8000000000001</ele><time>2026-04-07T21:43:14.759Z</time></trkpt><trkpt lat="9.9696742" lon="-84.1388379"><ele>1019.0</ele><time>2026-04-07T21:43:16.758Z</time></trkpt><trkpt lat="9.9696338" lon="-84.1387587"><ele>1019.6666666666667</ele><time>2026-04-07T21:43:17.759Z</time></trkpt><trkpt lat="9.9695994" lon="-84.1386868"><ele>1020.3333333333334</ele><time>2026-04-07T21:43:18.758Z</time></trkpt><trkpt lat="9.969561" lon="-84.1386178"><ele>1021.0</ele><time>2026-04-07T21:43:19.759Z</time></trkpt><trkpt lat="9.9695069" lon="-84.1385087"><ele>1021.6666666666667</ele><time>2026-04-07T21:43:21.759Z</time></trkpt><trkpt lat="9.9694762" lon="-84.1384376"><ele>1022.3333333333334</ele><time>2026-04-07T21:43:23.756Z</time></trkpt><trkpt lat="9.9694346" lon="-84.1383844"><ele>1023.0</ele><time>2026-04-07T21:43:26.758Z</time></trkpt><trkpt lat="9.9693862" lon="-84.138305"><ele>1023.4</ele><time>2026-04-07T21:43:28.757Z</time></trkpt><trkpt lat="9.969328" lon="-84.138201"><ele>1023.8</ele><time>2026-04-07T21:43:30.759Z</time></trkpt><trkpt lat="9.9692747" lon="-84.1380967"><ele>1024.2</ele><time>2026-04-07T21:43:32.759Z</time></trkpt><trkpt lat="9.9692203" lon="-84.137995"><ele>1024.6</ele><time>2026-04-07T21:43:34.759Z</time></trkpt><trkpt lat="9.9691915" lon="-84.1379364"><ele>1025.0</ele><time>2026-04-07T21:43:35.757Z</time></trkpt><trkpt lat="9.9691586" lon="-84.1378777"><ele>1024.2</ele><time>2026-04-07T21:43:36.759Z</time></trkpt><trkpt lat="9.9691083" lon="-84.1377744"><ele>1023.4</ele><time>2026-04-07T21:43:38.759Z</time></trkpt><trkpt lat="9.9690447" lon="-84.137672"><ele>1022.5999999999999</ele><time>2026-04-07T21:43:40.759Z</time></trkpt><trkpt lat="9.9689877" lon="-84.1375697"><ele>1021.8</ele><time>2026-04-07T21:43:42.759Z</time></trkpt><trkpt lat="9.96896" lon="-84.1375106"><ele>1021.0</ele><time>2026-04-07T21:43:43.758Z</time></trkpt><trkpt lat="9.9689297" lon="-84.1374516"><ele>1020.9999999999999</ele><time>2026-04-07T21:43:44.759Z</time></trkpt><trkpt lat="9.9688956" lon="-84.1373949"><ele>1021.0</ele><time>2026-04-07T21:43:45.758Z</time></trkpt><trkpt lat="9.9688431" lon="-84.1373058"><ele>1021.0</ele><time>2026-04-07T21:43:47.759Z</time></trkpt><trkpt lat="9.968802" lon="-84.1372366"><ele>1021.0</ele><time>2026-04-07T21:43:50.758Z</time></trkpt><trkpt lat="9.9687653" lon="-84.1371823"><ele>1020.9999999999999</ele><time>2026-04-07T21:43:54.759Z</time></trkpt><trkpt lat="9.9687271" lon="-84.1371198"><ele>1021.0</ele><time>2026-04-07T21:43:57.758Z</time></trkpt><trkpt lat="9.9686961" lon="-84.1370509"><ele>1021.2857142857142</ele><time>2026-04-07T21:44:00.758Z</time></trkpt><trkpt lat="9.9686782" lon="-84.1369881"><ele>1021.5714285714287</ele><time>2026-04-07T21:44:04.756Z</time></trkpt><trkpt lat="9.9686397" lon="-84.1369337"><ele>1021.8571428571429</ele><time>2026-04-07T21:44:07.757Z</time></trkpt><trkpt lat="9.968612" lon="-84.1368755"><ele>1022.1428571428571</ele><time>2026-04-07T21:44:12.758Z</time></trkpt><trkpt lat="9.9685643" lon="-84.1368254"><ele>1022.4285714285713</ele><time>2026-04-07T21:44:17.759Z</time></trkpt><trkpt lat="9.9685284" lon="-84.1367678"><ele>1022.7142857142858</ele><time>2026-04-07T21:44:21.758Z</time></trkpt><trkpt lat="9.9684942" lon="-84.1367076"><ele>1023.0</ele><time>2026-04-07T21:44:25.759Z</time></trkpt><trkpt lat="9.9684576" lon="-84.1366338"><ele>1023.0</ele><time>2026-04-07T21:44:30.759Z</time></trkpt><trkpt lat="9.968416" lon="-84.1365612"><ele>1023.0</ele><time>2026-04-07T21:44:33.759Z</time></trkpt><trkpt lat="9.9683736" lon="-84.1364816"><ele>1023.0</ele><time>2026-04-07T21:44:36.758Z</time></trkpt><trkpt lat="9.9683381" lon="-84.1364155"><ele>1023.0</ele><time>2026-04-07T21:44:39.759Z</time></trkpt><trkpt lat="9.9682992" lon="-84.1363465"><ele>1023.0</ele><time>2026-04-07T21:44:43.759Z</time></trkpt><trkpt lat="9.9682562" lon="-84.1362754"><ele>1023.0</ele><time>2026-04-07T21:44:47.758Z</time></trkpt><trkpt lat="9.968226" lon="-84.1362153"><ele>1022.8333333333334</ele><time>2026-04-07T21:44:53.759Z</time></trkpt><trkpt lat="9.9681947" lon="-84.1361588"><ele>1022.6666666666667</ele><time>2026-04-07T21:44:57.758Z</time></trkpt><trkpt lat="9.9681546" lon="-84.136096"><ele>1022.5</ele><time>2026-04-07T21:45:02.758Z</time></trkpt><trkpt lat="9.968127" lon="-84.1360363"><ele>1022.3333333333334</ele><time>2026-04-07T21:45:06.758Z</time></trkpt><trkpt lat="9.9680893" lon="-84.1359615"><ele>1022.1666666666667</ele><time>2026-04-07T21:45:08.758Z</time></trkpt><trkpt lat="9.9680517" lon="-84.1358905"><ele>1022.0</ele><time>2026-04-07T21:45:10.758Z</time></trkpt><trkpt lat="9.9680076" lon="-84.135807"><ele>1022.4000000000001</ele><time>2026-04-07T21:45:12.758Z</time></trkpt><trkpt lat="9.9679572" lon="-84.1357136"><ele>1022.8000000000001</ele><time>2026-04-07T21:45:14.759Z</time></trkpt><trkpt lat="9.9679171" lon="-84.1356365"><ele>1023.2</ele><time>2026-04-07T21:45:16.758Z</time></trkpt><trkpt lat="9.967876" lon="-84.1355589"><ele>1023.6</ele><time>2026-04-07T21:45:18.758Z</time></trkpt><trkpt lat="9.9678137" lon="-84.1354512"><ele>1024.0</ele><time>2026-04-07T21:45:20.758Z</time></trkpt><trkpt lat="9.9677634" lon="-84.1353624"><ele>1024.0</ele><time>2026-04-07T21:45:22.758Z</time></trkpt><trkpt lat="9.9677151" lon="-84.1352747"><ele>1024.0</ele><time>2026-04-07T21:45:24.757Z</time></trkpt><trkpt lat="9.9676619" lon="-84.1351759"><ele>1024.0</ele><time>2026-04-07T21:45:26.759Z</time></trkpt><trkpt lat="9.9676132" lon="-84.1350835"><ele>1024.0</ele><time>2026-04-07T21:45:28.758Z</time></trkpt><trkpt lat="9.9675666" lon="-84.1349952"><ele>1024.0</ele><time>2026-04-07T21:45:30.759Z</time></trkpt><trkpt lat="9.9675291" lon="-84.1349272"><ele>1018.4999999999999</ele><time>2026-04-07T21:45:32.757Z</time></trkpt><trkpt lat="9.9675004" lon="-84.134869"><ele>1013.0</ele><time>2026-04-07T21:45:34.758Z</time></trkpt><trkpt lat="9.9674568" lon="-84.134792"><ele>1007.5</ele><time>2026-04-07T21:45:37.757Z</time></trkpt><trkpt lat="9.9674271" lon="-84.1347294"><ele>1002.0</ele><time>2026-04-07T21:45:40.758Z</time></trkpt><trkpt lat="9.9673766" lon="-84.1346286"><ele>996.4999999999999</ele><time>2026-04-07T21:45:43.759Z</time></trkpt><trkpt lat="9.9673355" lon="-84.1345428"><ele>991.0</ele><time>2026-04-07T21:45:45.758Z</time></trkpt><trkpt lat="9.9672928" lon="-84.1344667"><ele>991.0</ele><time>2026-04-07T21:45:47.758Z</time></trkpt><trkpt lat="9.967245" lon="-84.1343885"><ele>990.9999999999999</ele><time>2026-04-07T21:45:49.758Z</time></trkpt><trkpt lat="9.9672036" lon="-84.1343075"><ele>990.9999999999999</ele><time>2026-04-07T21:45:51.758Z</time></trkpt><trkpt lat="9.9671598" lon="-84.1342267"><ele>991.0</ele><time>2026-04-07T21:45:53.758Z</time></trkpt><trkpt lat="9.9671162" lon="-84.1341453"><ele>991.0</ele><time>2026-04-07T21:45:55.757Z</time></trkpt><trkpt lat="9.967072" lon="-84.1340652"><ele>989.4999999999999</ele><time>2026-04-07T21:45:57.758Z</time></trkpt><trkpt lat="9.9670223" lon="-84.1339833"><ele>988.0</ele><time>2026-04-07T21:45:59.758Z</time></trkpt><trkpt lat="9.9669898" lon="-84.1339125"><ele>986.5</ele><time>2026-04-07T21:46:01.759Z</time></trkpt><trkpt lat="9.966946" lon="-84.1338333"><ele>985.0</ele><time>2026-04-07T21:46:04.758Z</time></trkpt><trkpt lat="9.9669002" lon="-84.1337679"><ele>983.4999999999999</ele><time>2026-04-07T21:46:07.758Z</time></trkpt><trkpt lat="9.9668543" lon="-84.1336849"><ele>982.0</ele><time>2026-04-07T21:46:10.758Z</time></trkpt><trkpt lat="9.966812" lon="-84.1336143"><ele>981.9999999999999</ele><time>2026-04-07T21:46:13.758Z</time></trkpt><trkpt lat="9.9667778" lon="-84.1335522"><ele>982.0</ele><time>2026-04-07T21:46:22.757Z</time></trkpt><trkpt lat="9.9667384" lon="-84.1334829"><ele>982.0</ele><time>2026-04-07T21:46:27.758Z</time></trkpt><trkpt lat="9.9667055" lon="-84.1334213"><ele>982.0</ele><time>2026-04-07T21:46:31.758Z</time></trkpt><trkpt lat="9.966675" lon="-84.1333606"><ele>981.9999999999999</ele><time>2026-04-07T21:46:34.758Z</time></trkpt><trkpt lat="9.9666368" lon="-84.133287"><ele>982.0</ele><time>2026-04-07T21:46:38.757Z</time></trkpt><trkpt lat="9.9665979" lon="-84.1332058"><ele>984.4000000000001</ele><time>2026-04-07T21:46:41.757Z</time></trkpt><trkpt lat="9.9665462" lon="-84.1331103"><ele>986.8000000000001</ele><time>2026-04-07T21:46:43.757Z</time></trkpt><trkpt lat="9.9665024" lon="-84.1330226"><ele>989.2</ele><time>2026-04-07T21:46:45.757Z</time></trkpt><trkpt lat="9.9664539" lon="-84.1329469"><ele>991.6</ele><time>2026-04-07T21:46:47.758Z</time></trkpt><trkpt lat="9.9664063" lon="-84.1328669"><ele>994.0</ele><time>2026-04-07T21:46:49.758Z</time></trkpt><trkpt lat="9.9663583" lon="-84.1327655"><ele>993.9999999999999</ele><time>2026-04-07T21:46:51.763Z</time></trkpt><trkpt lat="9.9662937" lon="-84.1326478"><ele>994.0</ele><time>2026-04-07T21:46:53.757Z</time></trkpt><trkpt lat="9.9662617" lon="-84.1325911"><ele>994.0</ele><time>2026-04-07T21:46:54.757Z</time></trkpt><trkpt lat="9.966231" lon="-84.1325276"><ele>994.0</ele><time>2026-04-07T21:46:55.757Z</time></trkpt><trkpt lat="9.9661857" lon="-84.1324484"><ele>993.9999999999999</ele><time>2026-04-07T21:46:56.758Z</time></trkpt><trkpt lat="9.9661526" lon="-84.1323828"><ele>994.0</ele><time>2026-04-07T21:46:57.757Z</time></trkpt><trkpt lat="9.9661217" lon="-84.1323169"><ele>992.0</ele><time>2026-04-07T21:46:58.758Z</time></trkpt><trkpt lat="9.966089" lon="-84.1322566"><ele>990.0000000000001</ele><time>2026-04-07T21:46:59.758Z</time></trkpt><trkpt lat="9.9660239" lon="-84.1321376"><ele>988.0000000000001</ele><time>2026-04-07T21:47:01.757Z</time></trkpt><trkpt lat="9.9659831" lon="-84.1320721"><ele>986.0</ele><time>2026-04-07T21:47:06.758Z</time></trkpt><trkpt lat="9.9659508" lon="-84.1320161"><ele>984.0</ele><time>2026-04-07T21:47:08.757Z</time></trkpt><trkpt lat="9.9658939" lon="-84.1319115"><ele>986.2</ele><time>2026-04-07T21:47:10.757Z</time></trkpt><trkpt lat="9.9658332" lon="-84.1318047"><ele>988.4000000000001</ele><time>2026-04-07T21:47:12.758Z</time></trkpt><trkpt lat="9.965778" lon="-84.1317036"><ele>990.6</ele><time>2026-04-07T21:47:14.758Z</time></trkpt><trkpt lat="9.965738" lon="-84.1316399"><ele>992.8</ele><time>2026-04-07T21:47:15.758Z</time></trkpt><trkpt lat="9.9656805" lon="-84.1315347"><ele>995.0</ele><time>2026-04-07T21:47:17.758Z</time></trkpt><trkpt lat="9.9656347" lon="-84.1314548"><ele>995.0000000000001</ele><time>2026-04-07T21:47:19.758Z</time></trkpt><trkpt lat="9.9655948" lon="-84.1313854"><ele>995.0</ele><time>2026-04-07T21:47:21.757Z</time></trkpt><trkpt lat="9.965553" lon="-84.1313241"><ele>995.0</ele><time>2026-04-07T21:47:24.757Z</time></trkpt><trkpt lat="9.9655284" lon="-84.131255"><ele>995.0</ele><time>2026-04-07T21:47:28.756Z</time></trkpt><trkpt lat="9.9654978" lon="-84.1311889"><ele>995.0000000000001</ele><time>2026-04-07T21:47:34.758Z</time></trkpt><trkpt lat="9.9654583" lon="-84.1311109"><ele>995.0</ele><time>2026-04-07T21:47:37.757Z</time></trkpt><trkpt lat="9.9654215" lon="-84.1310368"><ele>995.0000000000001</ele><time>2026-04-07T21:47:40.757Z</time></trkpt><trkpt lat="9.9653771" lon="-84.1309609"><ele>995.0</ele><time>2026-04-07T21:47:44.758Z</time></trkpt><trkpt lat="9.9653316" lon="-84.1308836"><ele>995.0</ele><time>2026-04-07T21:47:47.758Z</time></trkpt><trkpt lat="9.965287" lon="-84.1308119"><ele>995.0</ele><time>2026-04-07T21:47:50.758Z</time></trkpt><trkpt lat="9.965242" lon="-84.1307419"><ele>995.0000000000001</ele><time>2026-04-07T21:47:53.757Z</time></trkpt><trkpt lat="9.9652061" lon="-84.1306758"><ele>995.0</ele><time>2026-04-07T21:47:55.758Z</time></trkpt><trkpt lat="9.9651711" lon="-84.1305943"><ele>994.5000000000001</ele><time>2026-04-07T21:47:57.758Z</time></trkpt><trkpt lat="9.9651192" lon="-84.130512"><ele>994.0</ele><time>2026-04-07T21:47:59.756Z</time></trkpt><trkpt lat="9.9650743" lon="-84.1304402"><ele>993.5</ele><time>2026-04-07T21:48:01.758Z</time></trkpt><trkpt lat="9.965025" lon="-84.1303677"><ele>993.0</ele><time>2026-04-07T21:48:04.757Z</time></trkpt><trkpt lat="9.9649938" lon="-84.1303054"><ele>992.5000000000001</ele><time>2026-04-07T21:48:07.757Z</time></trkpt><trkpt lat="9.9649614" lon="-84.1302365"><ele>992.0</ele><time>2026-04-07T21:48:12.756Z</time></trkpt><trkpt lat="9.9649293" lon="-84.1301654"><ele>996.5000000000001</ele><time>2026-04-07T21:48:16.758Z</time></trkpt><trkpt lat="9.9648836" lon="-84.1300977"><ele>1001.0</ele><time>2026-04-07T21:48:19.756Z</time></trkpt><trkpt lat="9.9648513" lon="-84.1300386"><ele>1005.5</ele><time>2026-04-07T21:48:22.758Z</time></trkpt><trkpt lat="9.9648149" lon="-84.129966"><ele>1010.0</ele><time>2026-04-07T21:48:25.757Z</time></trkpt><trkpt lat="9.9647735" lon="-84.1298834"><ele>1014.5000000000001</ele><time>2026-04-07T21:48:28.758Z</time></trkpt><trkpt lat="9.9647373" lon="-84.1298091"><ele>1019.0</ele><time>2026-04-07T21:48:31.758Z</time></trkpt><trkpt lat="9.964706" lon="-84.1297471"><ele>1019.5714285714287</ele><time>2026-04-07T21:48:34.757Z</time></trkpt><trkpt lat="9.9646722" lon="-84.1296592"><ele>1020.1428571428571</ele><time>2026-04-07T21:48:37.757Z</time></trkpt><trkpt lat="9.9646421" lon="-84.1295975"><ele>1020.7142857142858</ele><time>2026-04-07T21:48:38.758Z</time></trkpt><trkpt lat="9.9646084" lon="-84.1295413"><ele>1021.2857142857143</ele><time>2026-04-07T21:48:39.758Z</time></trkpt><trkpt lat="9.9645746" lon="-84.1294811"><ele>1021.8571428571429</ele><time>2026-04-07T21:48:40.758Z</time></trkpt><trkpt lat="9.9645399" lon="-84.1294205"><ele>1022.4285714285714</ele><time>2026-04-07T21:48:41.757Z</time></trkpt><trkpt lat="9.9645074" lon="-84.1293524"><ele>1023.0</ele><time>2026-04-07T21:48:42.758Z</time></trkpt><trkpt lat="9.964468" lon="-84.1292815"><ele>1023.0</ele><time>2026-04-07T21:48:43.757Z</time></trkpt><trkpt lat="9.9644345" lon="-84.1292168"><ele>1023.0</ele><time>2026-04-07T21:48:44.757Z</time></trkpt><trkpt lat="9.9643784" lon="-84.1291127"><ele>1023.0</ele><time>2026-04-07T21:48:46.757Z</time></trkpt><trkpt lat="9.9643233" lon="-84.1290225"><ele>1023.0</ele><time>2026-04-07T21:48:48.758Z</time></trkpt><trkpt lat="9.9642782" lon="-84.1289517"><ele>1023.0</ele><time>2026-04-07T21:48:50.757Z</time></trkpt><trkpt lat="9.9642382" lon="-84.1288797"><ele>1023.3333333333334</ele><time>2026-04-07T21:48:52.758Z</time></trkpt><trkpt lat="9.9642019" lon="-84.1288084"><ele>1023.6666666666667</ele><time>2026-04-07T21:48:54.757Z</time></trkpt><trkpt lat="9.9641652" lon="-84.1287407"><ele>1024.0</ele><time>2026-04-07T21:48:56.758Z</time></trkpt><trkpt lat="9.9641168" lon="-84.1286498"><ele>1024.3333333333335</ele><time>2026-04-07T21:48:59.758Z</time></trkpt><trkpt lat="9.9640829" lon="-84.1285858"><ele>1024.6666666666667</ele><time>2026-04-07T21:49:00.758Z</time></trkpt><trkpt lat="9.964052" lon="-84.1285275"><ele>1025.0</ele><time>2026-04-07T21:49:01.758Z</time></trkpt><trkpt lat="9.9640192" lon="-84.1284584"><ele>1026.1666666666667</ele><time>2026-04-07T21:49:02.755Z</time></trkpt><trkpt lat="9.9639813" lon="-84.128389"><ele>1027.3333333333335</ele><time>2026-04-07T21:49:03.758Z</time></trkpt><trkpt lat="9.9639342" lon="-84.1283118"><ele>1028.5</ele><time>2026-04-07T21:49:04.757Z</time></trkpt><trkpt lat="9.9638989" lon="-84.1282458"><ele>1029.6666666666667</ele><time>2026-04-07T21:49:05.757Z</time></trkpt><trkpt lat="9.9638665" lon="-84.1281882"><ele>1030.8333333333333</ele><time>2026-04-07T21:49:06.757Z</time></trkpt><trkpt lat="9.963814" lon="-84.1280868"><ele>1032.0</ele><time>2026-04-07T21:49:08.756Z</time></trkpt><trkpt lat="9.9637601" lon="-84.1279927"><ele>1032.0</ele><time>2026-04-07T21:49:10.758Z</time></trkpt><trkpt lat="9.9637126" lon="-84.1279074"><ele>1032.0</ele><time>2026-04-07T21:49:12.758Z</time></trkpt><trkpt lat="9.9636723" lon="-84.1278301"><ele>1032.0</ele><time>2026-04-07T21:49:14.758Z</time></trkpt><trkpt lat="9.9636356" lon="-84.1277637"><ele>1032.0</ele><time>2026-04-07T21:49:16.758Z</time></trkpt><trkpt lat="9.963606" lon="-84.1277065"><ele>1032.0</ele><time>2026-04-07T21:49:18.757Z</time></trkpt><trkpt lat="9.9635745" lon="-84.1276372"><ele>1032.0</ele><time>2026-04-07T21:49:21.757Z</time></trkpt><trkpt lat="9.9635422" lon="-84.1275796"><ele>1031.9999999999998</ele><time>2026-04-07T21:49:24.758Z</time></trkpt><trkpt lat="9.9635062" lon="-84.1275149"><ele>1032.0</ele><time>2026-04-07T21:49:27.757Z</time></trkpt><trkpt lat="9.9634704" lon="-84.1274485"><ele>1032.0</ele><time>2026-04-07T21:49:31.758Z</time></trkpt><trkpt lat="9.9634315" lon="-84.1273843"><ele>1032.0</ele><time>2026-04-07T21:49:36.757Z</time></trkpt><trkpt lat="9.9633966" lon="-84.1273282"><ele>1032.0</ele><time>2026-04-07T21:49:42.757Z</time></trkpt><trkpt lat="9.9633636" lon="-84.1272674"><ele>1031.9999999999998</ele><time>2026-04-07T21:49:47.757Z</time></trkpt><trkpt lat="9.9633341" lon="-84.1272017"><ele>1032.0</ele><time>2026-04-07T21:49:50.758Z</time></trkpt><trkpt lat="9.963302" lon="-84.1271332"><ele>1033.1666666666667</ele><time>2026-04-07T21:49:53.757Z</time></trkpt><trkpt lat="9.9632659" lon="-84.1270798"><ele>1034.3333333333333</ele><time>2026-04-07T21:49:56.758Z</time></trkpt><trkpt lat="9.9632245" lon="-84.127012"><ele>1035.5</ele><time>2026-04-07T21:50:00.757Z</time></trkpt><trkpt lat="9.9631815" lon="-84.1269318"><ele>1036.6666666666665</ele><time>2026-04-07T21:50:02.757Z</time></trkpt><trkpt lat="9.9631225" lon="-84.1268227"><ele>1037.8333333333333</ele><time>2026-04-07T21:50:04.757Z</time></trkpt><trkpt lat="9.9630723" lon="-84.1267552"><ele>1039.0</ele><time>2026-04-07T21:50:05.757Z</time></trkpt><trkpt lat="9.9630369" lon="-84.1266971"><ele>1039.0</ele><time>2026-04-07T21:50:06.757Z</time></trkpt><trkpt lat="9.9630066" lon="-84.1266402"><ele>1039.0</ele><time>2026-04-07T21:50:07.757Z</time></trkpt><trkpt lat="9.9629808" lon="-84.1265793"><ele>1039.0</ele><time>2026-04-07T21:50:08.757Z</time></trkpt><trkpt lat="9.9629304" lon="-84.1264819"><ele>1039.0</ele><time>2026-04-07T21:50:10.758Z</time></trkpt><trkpt lat="9.9628892" lon="-84.1264096"><ele>1039.0</ele><time>2026-04-07T21:50:12.756Z</time></trkpt><trkpt lat="9.962845" lon="-84.1263273"><ele>1039.0</ele><time>2026-04-07T21:50:15.756Z</time></trkpt><trkpt lat="9.9628125" lon="-84.126268"><ele>1038.8333333333333</ele><time>2026-04-07T21:50:17.756Z</time></trkpt><trkpt lat="9.9627744" lon="-84.1261981"><ele>1038.6666666666665</ele><time>2026-04-07T21:50:19.758Z</time></trkpt><trkpt lat="9.9627372" lon="-84.1261276"><ele>1038.5</ele><time>2026-04-07T21:50:21.757Z</time></trkpt><trkpt lat="9.9626984" lon="-84.1260458"><ele>1038.3333333333333</ele><time>2026-04-07T21:50:24.756Z</time></trkpt><trkpt lat="9.9626625" lon="-84.1259808"><ele>1038.1666666666667</ele><time>2026-04-07T21:50:27.758Z</time></trkpt><trkpt lat="9.9626303" lon="-84.1259142"><ele>1038.0</ele><time>2026-04-07T21:50:30.758Z</time></trkpt><trkpt lat="9.9625967" lon="-84.1258532"><ele>1038.0</ele><time>2026-04-07T21:50:33.756Z</time></trkpt><trkpt lat="9.9625646" lon="-84.125794"><ele>1038.0</ele><time>2026-04-07T21:50:36.757Z</time></trkpt><trkpt lat="9.9625252" lon="-84.1257201"><ele>1038.0</ele><time>2026-04-07T21:50:40.758Z</time></trkpt><trkpt lat="9.9624949" lon="-84.1256602"><ele>1038.0</ele><time>2026-04-07T21:50:43.757Z</time></trkpt><trkpt lat="9.9624612" lon="-84.1255953"><ele>1038.0</ele><time>2026-04-07T21:50:47.757Z</time></trkpt><trkpt lat="9.962418" lon="-84.1255481"><ele>1038.0</ele><time>2026-04-07T21:50:55.758Z</time></trkpt><trkpt lat="9.9623824" lon="-84.1254787"><ele>1038.0</ele><time>2026-04-07T21:50:58.757Z</time></trkpt><trkpt lat="9.9623459" lon="-84.1254248"><ele>1038.6666666666667</ele><time>2026-04-07T21:50:59.757Z</time></trkpt><trkpt lat="9.9622908" lon="-84.1253167"><ele>1039.3333333333333</ele><time>2026-04-07T21:51:01.758Z</time></trkpt><trkpt lat="9.962248" lon="-84.1252559"><ele>1040.0</ele><time>2026-04-07T21:51:02.758Z</time></trkpt><trkpt lat="9.9622114" lon="-84.1251884"><ele>1040.6666666666665</ele><time>2026-04-07T21:51:03.756Z</time></trkpt><trkpt lat="9.9621726" lon="-84.1251204"><ele>1041.3333333333333</ele><time>2026-04-07T21:51:04.756Z</time></trkpt><trkpt lat="9.9621387" lon="-84.1250562"><ele>1042.0</ele><time>2026-04-07T21:51:05.759Z</time></trkpt><trkpt lat="9.9621026" lon="-84.1249898"><ele>1042.0</ele><time>2026-04-07T21:51:06.757Z</time></trkpt><trkpt lat="9.9620651" lon="-84.1249301"><ele>1042.0</ele><time>2026-04-07T21:51:07.756Z</time></trkpt><trkpt lat="9.9620355" lon="-84.1248709"><ele>1042.0</ele><time>2026-04-07T21:51:08.757Z</time></trkpt><trkpt lat="9.9620032" lon="-84.1248073"><ele>1042.0</ele><time>2026-04-07T21:51:09.758Z</time></trkpt><trkpt lat="9.9619739" lon="-84.1247443"><ele>1042.0</ele><time>2026-04-07T21:51:10.758Z</time></trkpt><trkpt lat="9.9619155" lon="-84.1246395"><ele>1042.0</ele><time>2026-04-07T21:51:12.756Z</time></trkpt><trkpt lat="9.9618706" lon="-84.124539"><ele>1042.3333333333333</ele><time>2026-04-07T21:51:14.757Z</time></trkpt><trkpt lat="9.9618304" lon="-84.1244722"><ele>1042.6666666666665</ele><time>2026-04-07T21:51:16.757Z</time></trkpt><trkpt lat="9.9617884" lon="-84.1243843"><ele>1043.0</ele><time>2026-04-07T21:51:18.757Z</time></trkpt><trkpt lat="9.9617536" lon="-84.1243231"><ele>1043.3333333333333</ele><time>2026-04-07T21:51:19.756Z</time></trkpt><trkpt lat="9.9617205" lon="-84.1242604"><ele>1043.6666666666667</ele><time>2026-04-07T21:51:20.756Z</time></trkpt><trkpt lat="9.9616937" lon="-84.1242001"><ele>1044.0</ele><time>2026-04-07T21:51:21.756Z</time></trkpt><trkpt lat="9.9616253" lon="-84.1240789"><ele>1044.1666666666667</ele><time>2026-04-07T21:51:23.756Z</time></trkpt><trkpt lat="9.9615867" lon="-84.1240185"><ele>1044.3333333333333</ele><time>2026-04-07T21:51:24.757Z</time></trkpt><trkpt lat="9.9615299" lon="-84.123911"><ele>1044.5</ele><time>2026-04-07T21:51:26.757Z</time></trkpt><trkpt lat="9.9614866" lon="-84.1238213"><ele>1044.6666666666665</ele><time>2026-04-07T21:51:28.757Z</time></trkpt><trkpt lat="9.9614483" lon="-84.123767"><ele>1044.8333333333333</ele><time>2026-04-07T21:51:30.757Z</time></trkpt><trkpt lat="9.9614191" lon="-84.1237041"><ele>1045.0</ele><time>2026-04-07T21:51:32.756Z</time></trkpt><trkpt lat="9.9613658" lon="-84.1236103"><ele>1045.0</ele><time>2026-04-07T21:51:34.757Z</time></trkpt><trkpt lat="9.9613099" lon="-84.1235192"><ele>1045.0</ele><time>2026-04-07T21:51:36.757Z</time></trkpt><trkpt lat="9.9612722" lon="-84.1234439"><ele>1045.0</ele><time>2026-04-07T21:51:38.757Z</time></trkpt><trkpt lat="9.9612317" lon="-84.1233774"><ele>1045.0</ele><time>2026-04-07T21:51:41.756Z</time></trkpt><trkpt lat="9.9611961" lon="-84.1233057"><ele>1045.0</ele><time>2026-04-07T21:51:44.757Z</time></trkpt><trkpt lat="9.9611645" lon="-84.1232496"><ele>1045.0</ele><time>2026-04-07T21:51:46.757Z</time></trkpt><trkpt lat="9.9611206" lon="-84.1231746"><ele>1044.857142857143</ele><time>2026-04-07T21:51:49.757Z</time></trkpt><trkpt lat="9.9610901" lon="-84.1231146"><ele>1044.7142857142856</ele><time>2026-04-07T21:51:52.755Z</time></trkpt><trkpt lat="9.9610509" lon="-84.123056"><ele>1044.5714285714284</ele><time>2026-04-07T21:52:03.757Z</time></trkpt><trkpt lat="9.9610199" lon="-84.1229892"><ele>1044.4285714285713</ele><time>2026-04-07T21:52:06.756Z</time></trkpt><trkpt lat="9.9609969" lon="-84.122929"><ele>1044.2857142857142</ele><time>2026-04-07T21:52:10.757Z</time></trkpt><trkpt lat="9.9609711" lon="-84.1228591"><ele>1044.142857142857</ele><time>2026-04-07T21:52:14.757Z</time></trkpt><trkpt lat="9.9609328" lon="-84.1227765"><ele>1044.0</ele><time>2026-04-07T21:52:17.757Z</time></trkpt><trkpt lat="9.9608989" lon="-84.1227187"><ele>1044.142857142857</ele><time>2026-04-07T21:52:19.758Z</time></trkpt><trkpt lat="9.9608641" lon="-84.1226641"><ele>1044.2857142857142</ele><time>2026-04-07T21:52:21.756Z</time></trkpt><trkpt lat="9.9608195" lon="-84.1226133"><ele>1044.4285714285713</ele><time>2026-04-07T21:52:23.756Z</time></trkpt><trkpt lat="9.9607742" lon="-84.1225519"><ele>1044.5714285714284</ele><time>2026-04-07T21:52:26.756Z</time></trkpt><trkpt lat="9.9607392" lon="-84.1224965"><ele>1044.7142857142856</ele><time>2026-04-07T21:52:28.756Z</time></trkpt><trkpt lat="9.9607066" lon="-84.12244"><ele>1044.857142857143</ele><time>2026-04-07T21:52:31.757Z</time></trkpt><trkpt lat="9.9606705" lon="-84.1223772"><ele>1045.0</ele><time>2026-04-07T21:52:34.758Z</time></trkpt><trkpt lat="9.9606344" lon="-84.1223057"><ele>1044.7142857142858</ele><time>2026-04-07T21:52:36.757Z</time></trkpt><trkpt lat="9.9605947" lon="-84.1222499"><ele>1044.4285714285713</ele><time>2026-04-07T21:52:42.757Z</time></trkpt><trkpt lat="9.9605693" lon="-84.1221872"><ele>1044.142857142857</ele><time>2026-04-07T21:52:47.757Z</time></trkpt><trkpt lat="9.9605353" lon="-84.1221189"><ele>1043.857142857143</ele><time>2026-04-07T21:52:52.757Z</time></trkpt><trkpt lat="9.9605003" lon="-84.122061"><ele>1043.5714285714284</ele><time>2026-04-07T21:52:56.756Z</time></trkpt><trkpt lat="9.9604694" lon="-84.1220033"><ele>1043.2857142857142</ele><time>2026-04-07T21:52:59.756Z</time></trkpt><trkpt lat="9.9604377" lon="-84.1219356"><ele>1043.0</ele><time>2026-04-07T21:53:03.756Z</time></trkpt><trkpt lat="9.9604121" lon="-84.1218752"><ele>1043.0</ele><time>2026-04-07T21:53:07.756Z</time></trkpt><trkpt lat="9.9603778" lon="-84.1218158"><ele>1043.0</ele><time>2026-04-07T21:53:12.756Z</time></trkpt><trkpt lat="9.9603435" lon="-84.121757"><ele>1043.0</ele><time>2026-04-07T21:53:17.756Z</time></trkpt><trkpt lat="9.9603105" lon="-84.1216889"><ele>1043.0</ele><time>2026-04-07T21:53:22.757Z</time></trkpt><trkpt lat="9.9602782" lon="-84.121622"><ele>1043.0</ele><time>2026-04-07T21:53:26.757Z</time></trkpt><trkpt lat="9.9602382" lon="-84.1215616"><ele>1043.0</ele><time>2026-04-07T21:53:30.757Z</time></trkpt><trkpt lat="9.9602002" lon="-84.1214933"><ele>1043.0</ele><time>2026-04-07T21:53:35.757Z</time></trkpt><trkpt lat="9.9601689" lon="-84.1214271"><ele>1043.2857142857142</ele><time>2026-04-07T21:53:40.757Z</time></trkpt><trkpt lat="9.9601378" lon="-84.1213549"><ele>1043.5714285714284</ele><time>2026-04-07T21:53:45.757Z</time></trkpt><trkpt lat="9.9600995" lon="-84.1212985"><ele>1043.857142857143</ele><time>2026-04-07T21:53:50.756Z</time></trkpt><trkpt lat="9.9600745" lon="-84.1212306"><ele>1044.142857142857</ele><time>2026-04-07T21:54:01.755Z</time></trkpt><trkpt lat="9.9600451" lon="-84.1211646"><ele>1044.4285714285713</ele><time>2026-04-07T21:54:05.756Z</time></trkpt><trkpt lat="9.9600108" lon="-84.1210974"><ele>1044.7142857142858</ele><time>2026-04-07T21:54:10.757Z</time></trkpt><trkpt lat="9.9599729" lon="-84.1210335"><ele>1045.0</ele><time>2026-04-07T21:54:16.756Z</time></trkpt><trkpt lat="9.9599389" lon="-84.1209604"><ele>1045.857142857143</ele><time>2026-04-07T21:54:20.757Z</time></trkpt><trkpt lat="9.9599006" lon="-84.1209059"><ele>1046.7142857142856</ele><time>2026-04-07T21:54:29.757Z</time></trkpt><trkpt lat="9.9598658" lon="-84.1208448"><ele>1047.5714285714284</ele><time>2026-04-07T21:54:33.756Z</time></trkpt><trkpt lat="9.959831" lon="-84.1207799"><ele>1048.4285714285713</ele><time>2026-04-07T21:54:37.756Z</time></trkpt><trkpt lat="9.9597921" lon="-84.1207139"><ele>1049.2857142857142</ele><time>2026-04-07T21:54:44.756Z</time></trkpt><trkpt lat="9.9597489" lon="-84.1206459"><ele>1050.142857142857</ele><time>2026-04-07T21:54:49.757Z</time></trkpt><trkpt lat="9.9597157" lon="-84.120586"><ele>1051.0</ele><time>2026-04-07T21:54:53.756Z</time></trkpt><trkpt lat="9.9596773" lon="-84.1205181"><ele>1051.2857142857142</ele><time>2026-04-07T21:54:57.756Z</time></trkpt><trkpt lat="9.9596433" lon="-84.1204527"><ele>1051.5714285714284</ele><time>2026-04-07T21:55:01.756Z</time></trkpt><trkpt lat="9.9596103" lon="-84.1203925"><ele>1051.8571428571427</ele><time>2026-04-07T21:55:05.757Z</time></trkpt><trkpt lat="9.9595842" lon="-84.1203333"><ele>1052.142857142857</ele><time>2026-04-07T21:55:09.756Z</time></trkpt><trkpt lat="9.9595494" lon="-84.1202677"><ele>1052.4285714285713</ele><time>2026-04-07T21:55:14.756Z</time></trkpt><trkpt lat="9.9595104" lon="-84.1202044"><ele>1052.7142857142856</ele><time>2026-04-07T21:55:19.756Z</time></trkpt><trkpt lat="9.9594753" lon="-84.1201455"><ele>1053.0</ele><time>2026-04-07T21:55:24.756Z</time></trkpt><trkpt lat="9.9594371" lon="-84.1200868"><ele>1052.9999999999998</ele><time>2026-04-07T21:55:29.755Z</time></trkpt><trkpt lat="9.9594103" lon="-84.1200287"><ele>1053.0</ele><time>2026-04-07T21:55:34.756Z</time></trkpt><trkpt lat="9.9593816" lon="-84.119966"><ele>1053.0</ele><time>2026-04-07T21:55:39.756Z</time></trkpt><trkpt lat="9.9593497" lon="-84.1198972"><ele>1053.0</ele><time>2026-04-07T21:55:43.755Z</time></trkpt><trkpt lat="9.9593184" lon="-84.119839"><ele>1053.0</ele><time>2026-04-07T21:55:46.755Z</time></trkpt><trkpt lat="9.9592828" lon="-84.1197731"><ele>1052.9999999999998</ele><time>2026-04-07T21:55:49.756Z</time></trkpt><trkpt lat="9.9592421" lon="-84.1196961"><ele>1053.0</ele><time>2026-04-07T21:55:52.756Z</time></trkpt><trkpt lat="9.9591967" lon="-84.1196176"><ele>1053.6666666666667</ele><time>2026-04-07T21:55:55.757Z</time></trkpt><trkpt lat="9.9591582" lon="-84.1195494"><ele>1054.3333333333333</ele><time>2026-04-07T21:55:57.755Z</time></trkpt><trkpt lat="9.9591209" lon="-84.1194835"><ele>1055.0</ele><time>2026-04-07T21:55:59.756Z</time></trkpt><trkpt lat="9.9590807" lon="-84.1194122"><ele>1055.6666666666665</ele><time>2026-04-07T21:56:01.756Z</time></trkpt><trkpt lat="9.9590376" lon="-84.1193391"><ele>1056.3333333333333</ele><time>2026-04-07T21:56:03.756Z</time></trkpt><trkpt lat="9.9590042" lon="-84.1192687"><ele>1057.0</ele><time>2026-04-07T21:56:05.755Z</time></trkpt><trkpt lat="9.9589668" lon="-84.1192029"><ele>1057.0</ele><time>2026-04-07T21:56:07.756Z</time></trkpt><trkpt lat="9.9589333" lon="-84.1191391"><ele>1057.0</ele><time>2026-04-07T21:56:09.756Z</time></trkpt><trkpt lat="9.958899" lon="-84.1190752"><ele>1057.0</ele><time>2026-04-07T21:56:11.755Z</time></trkpt><trkpt lat="9.9588621" lon="-84.1190068"><ele>1057.0</ele><time>2026-04-07T21:56:13.756Z</time></trkpt><trkpt lat="9.9588222" lon="-84.1189348"><ele>1057.0</ele><time>2026-04-07T21:56:15.755Z</time></trkpt><trkpt lat="9.9587762" lon="-84.1188541"><ele>1057.0</ele><time>2026-04-07T21:56:17.757Z</time></trkpt><trkpt lat="9.9587217" lon="-84.1187677"><ele>1057.1666666666665</ele><time>2026-04-07T21:56:19.757Z</time></trkpt><trkpt lat="9.9586715" lon="-84.1186824"><ele>1057.3333333333333</ele><time>2026-04-07T21:56:21.757Z</time></trkpt><trkpt lat="9.9586239" lon="-84.1185984"><ele>1057.5</ele><time>2026-04-07T21:56:23.755Z</time></trkpt><trkpt lat="9.9585773" lon="-84.1185188"><ele>1057.6666666666667</ele><time>2026-04-07T21:56:25.755Z</time></trkpt><trkpt lat="9.9585283" lon="-84.1184463"><ele>1057.8333333333335</ele><time>2026-04-07T21:56:27.755Z</time></trkpt><trkpt lat="9.9584905" lon="-84.1183801"><ele>1058.0</ele><time>2026-04-07T21:56:29.756Z</time></trkpt><trkpt lat="9.9584523" lon="-84.118322"><ele>1058.0</ele><time>2026-04-07T21:56:31.756Z</time></trkpt><trkpt lat="9.9584" lon="-84.1182475"><ele>1058.0</ele><time>2026-04-07T21:56:34.755Z</time></trkpt><trkpt lat="9.9583542" lon="-84.1181955"><ele>1058.0</ele><time>2026-04-07T21:56:37.755Z</time></trkpt><trkpt lat="9.9583027" lon="-84.1181432"><ele>1058.0</ele><time>2026-04-07T21:56:41.756Z</time></trkpt><trkpt lat="9.9582508" lon="-84.1180826"><ele>1058.0</ele><time>2026-04-07T21:56:44.757Z</time></trkpt><trkpt lat="9.9582088" lon="-84.1180127"><ele>1058.0</ele><time>2026-04-07T21:56:47.756Z</time></trkpt><trkpt lat="9.9581805" lon="-84.1179524"><ele>1058.4</ele><time>2026-04-07T21:56:50.756Z</time></trkpt><trkpt lat="9.9581416" lon="-84.1178849"><ele>1058.8</ele><time>2026-04-07T21:56:54.756Z</time></trkpt><trkpt lat="9.958097" lon="-84.1178245"><ele>1059.2</ele><time>2026-04-07T21:56:56.756Z</time></trkpt><trkpt lat="9.9580378" lon="-84.1177447"><ele>1059.6</ele><time>2026-04-07T21:56:58.756Z</time></trkpt><trkpt lat="9.957967" lon="-84.1176514"><ele>1060.0</ele><time>2026-04-07T21:57:00.755Z</time></trkpt><trkpt lat="9.9578977" lon="-84.1175646"><ele>1060.0</ele><time>2026-04-07T21:57:02.756Z</time></trkpt><trkpt lat="9.9578198" lon="-84.1174676"><ele>1060.0</ele><time>2026-04-07T21:57:04.755Z</time></trkpt><trkpt lat="9.9577727" lon="-84.1174178"><ele>1060.0</ele><time>2026-04-07T21:57:05.756Z</time></trkpt><trkpt lat="9.9577267" lon="-84.1173633"><ele>1060.0</ele><time>2026-04-07T21:57:06.756Z</time></trkpt><trkpt lat="9.9576839" lon="-84.1173129"><ele>1060.0</ele><time>2026-04-07T21:57:07.755Z</time></trkpt><trkpt lat="9.9576373" lon="-84.1172581"><ele>1060.0</ele><time>2026-04-07T21:57:08.756Z</time></trkpt><trkpt lat="9.957589" lon="-84.1172043"><ele>1060.3333333333333</ele><time>2026-04-07T21:57:09.756Z</time></trkpt><trkpt lat="9.957537" lon="-84.1171461"><ele>1060.6666666666665</ele><time>2026-04-07T21:57:10.755Z</time></trkpt><trkpt lat="9.9574893" lon="-84.1170979"><ele>1061.0</ele><time>2026-04-07T21:57:11.755Z</time></trkpt><trkpt lat="9.95744" lon="-84.1170505"><ele>1061.3333333333333</ele><time>2026-04-07T21:57:12.756Z</time></trkpt><trkpt lat="9.9573918" lon="-84.1169985"><ele>1061.6666666666667</ele><time>2026-04-07T21:57:13.756Z</time></trkpt><trkpt lat="9.9572991" lon="-84.1169051"><ele>1062.0</ele><time>2026-04-07T21:57:15.755Z</time></trkpt><trkpt lat="9.9572507" lon="-84.1168575"><ele>1062.1666666666667</ele><time>2026-04-07T21:57:16.756Z</time></trkpt><trkpt lat="9.9571911" lon="-84.1168049"><ele>1062.3333333333333</ele><time>2026-04-07T21:57:17.755Z</time></trkpt><trkpt lat="9.9571356" lon="-84.116749"><ele>1062.5</ele><time>2026-04-07T21:57:18.756Z</time></trkpt><trkpt lat="9.9570831" lon="-84.1166992"><ele>1062.6666666666665</ele><time>2026-04-07T21:57:19.756Z</time></trkpt><trkpt lat="9.9570359" lon="-84.116655"><ele>1062.8333333333333</ele><time>2026-04-07T21:57:20.756Z</time></trkpt><trkpt lat="9.9569566" lon="-84.116581"><ele>1063.0</ele><time>2026-04-07T21:57:22.757Z</time></trkpt><trkpt lat="9.9568718" lon="-84.116503"><ele>1063.2</ele><time>2026-04-07T21:57:24.755Z</time></trkpt><trkpt lat="9.9567823" lon="-84.1164225"><ele>1063.4</ele><time>2026-04-07T21:57:26.756Z</time></trkpt><trkpt lat="9.9567356" lon="-84.1163775"><ele>1063.6000000000001</ele><time>2026-04-07T21:57:27.756Z</time></trkpt><trkpt lat="9.9566598" lon="-84.1163136"><ele>1063.8</ele><time>2026-04-07T21:57:29.756Z</time></trkpt><trkpt lat="9.9565906" lon="-84.1162516"><ele>1064.0</ele><time>2026-04-07T21:57:31.756Z</time></trkpt><trkpt lat="9.9565024" lon="-84.1161803"><ele>1064.5</ele><time>2026-04-07T21:57:33.756Z</time></trkpt><trkpt lat="9.956445" lon="-84.1161433"><ele>1065.0</ele><time>2026-04-07T21:57:34.756Z</time></trkpt><trkpt lat="9.9563518" lon="-84.1160765"><ele>1065.5</ele><time>2026-04-07T21:57:36.756Z</time></trkpt><trkpt lat="9.9563004" lon="-84.1160334"><ele>1066.0</ele><time>2026-04-07T21:57:37.756Z</time></trkpt><trkpt lat="9.9562454" lon="-84.1159972"><ele>1066.5</ele><time>2026-04-07T21:57:38.756Z</time></trkpt><trkpt lat="9.9561938" lon="-84.1159565"><ele>1067.0</ele><time>2026-04-07T21:57:39.756Z</time></trkpt><trkpt lat="9.9560977" lon="-84.1158889"><ele>1067.0</ele><time>2026-04-07T21:57:41.756Z</time></trkpt><trkpt lat="9.9560247" lon="-84.1158376"><ele>1067.0</ele><time>2026-04-07T21:57:43.755Z</time></trkpt><trkpt lat="9.9559714" lon="-84.1158029"><ele>1067.0</ele><time>2026-04-07T21:57:45.755Z</time></trkpt><trkpt lat="9.9559043" lon="-84.1157541"><ele>1067.0</ele><time>2026-04-07T21:57:48.756Z</time></trkpt><trkpt lat="9.955834" lon="-84.1157073"><ele>1067.0</ele><time>2026-04-07T21:57:51.756Z</time></trkpt><trkpt lat="9.9557589" lon="-84.1156588"><ele>1067.0</ele><time>2026-04-07T21:57:54.755Z</time></trkpt><trkpt lat="9.9556744" lon="-84.1156152"><ele>1067.5</ele><time>2026-04-07T21:57:57.756Z</time></trkpt><trkpt lat="9.9555966" lon="-84.1155567"><ele>1068.0</ele><time>2026-04-07T21:57:59.755Z</time></trkpt><trkpt lat="9.9555413" lon="-84.1155217"><ele>1068.5</ele><time>2026-04-07T21:58:00.755Z</time></trkpt><trkpt lat="9.9554916" lon="-84.1154793"><ele>1069.0</ele><time>2026-04-07T21:58:01.756Z</time></trkpt><trkpt lat="9.955392" lon="-84.1154038"><ele>1069.5</ele><time>2026-04-07T21:58:03.756Z</time></trkpt><trkpt lat="9.9553376" lon="-84.1153641"><ele>1070.0</ele><time>2026-04-07T21:58:04.756Z</time></trkpt><trkpt lat="9.9552825" lon="-84.1153257"><ele>1070.0</ele><time>2026-04-07T21:58:05.755Z</time></trkpt><trkpt lat="9.9551875" lon="-84.1152614"><ele>1070.0</ele><time>2026-04-07T21:58:07.755Z</time></trkpt><trkpt lat="9.9550993" lon="-84.115192"><ele>1070.0</ele><time>2026-04-07T21:58:09.755Z</time></trkpt><trkpt lat="9.9550024" lon="-84.1151252"><ele>1070.0</ele><time>2026-04-07T21:58:11.755Z</time></trkpt><trkpt lat="9.9549058" lon="-84.1150559"><ele>1070.2</ele><time>2026-04-07T21:58:13.756Z</time></trkpt><trkpt lat="9.9548217" lon="-84.1149948"><ele>1070.4</ele><time>2026-04-07T21:58:15.756Z</time></trkpt><trkpt lat="9.9547425" lon="-84.1149398"><ele>1070.6</ele><time>2026-04-07T21:58:17.755Z</time></trkpt><trkpt lat="9.9546544" lon="-84.1148821"><ele>1070.8</ele><time>2026-04-07T21:58:19.756Z</time></trkpt><trkpt lat="9.9545669" lon="-84.1148215"><ele>1071.0</ele><time>2026-04-07T21:58:21.755Z</time></trkpt><trkpt lat="9.9544617" lon="-84.1147501"><ele>1071.0</ele><time>2026-04-07T21:58:23.755Z</time></trkpt><trkpt lat="9.9543661" lon="-84.1146865"><ele>1071.0</ele><time>2026-04-07T21:58:25.755Z</time></trkpt><trkpt lat="9.9542804" lon="-84.114625"><ele>1071.0</ele><time>2026-04-07T21:58:27.756Z</time></trkpt><trkpt lat="9.9542049" lon="-84.1145727"><ele>1071.0</ele><time>2026-04-07T21:58:29.756Z</time></trkpt><trkpt lat="9.9541381" lon="-84.1145253"><ele>1071.0</ele><time>2026-04-07T21:58:32.755Z</time></trkpt><trkpt lat="9.9540695" lon="-84.114482"><ele>1071.1666666666667</ele><time>2026-04-07T21:58:36.756Z</time></trkpt><trkpt lat="9.9540141" lon="-84.1144439"><ele>1071.3333333333333</ele><time>2026-04-07T21:58:38.756Z</time></trkpt><trkpt lat="9.953952" lon="-84.1143997"><ele>1071.5</ele><time>2026-04-07T21:58:41.756Z</time></trkpt><trkpt lat="9.9538857" lon="-84.114357"><ele>1071.6666666666665</ele><time>2026-04-07T21:58:45.754Z</time></trkpt><trkpt lat="9.9538284" lon="-84.1143177"><ele>1071.8333333333333</ele><time>2026-04-07T21:58:49.755Z</time></trkpt><trkpt lat="9.9537515" lon="-84.114255"><ele>1072.0</ele><time>2026-04-07T21:58:52.754Z</time></trkpt><trkpt lat="9.9536695" lon="-84.1142011"><ele>1072.0</ele><time>2026-04-07T21:58:54.755Z</time></trkpt><trkpt lat="9.953587" lon="-84.1141436"><ele>1072.0</ele><time>2026-04-07T21:58:56.756Z</time></trkpt><trkpt lat="9.9534848" lon="-84.1140767"><ele>1072.0</ele><time>2026-04-07T21:58:58.755Z</time></trkpt><trkpt lat="9.9534282" lon="-84.1140363"><ele>1072.0</ele><time>2026-04-07T21:58:59.755Z</time></trkpt><trkpt lat="9.9533728" lon="-84.1139963"><ele>1072.0</ele><time>2026-04-07T21:59:00.755Z</time></trkpt><trkpt lat="9.953319" lon="-84.1139567"><ele>1072.0</ele><time>2026-04-07T21:59:01.756Z</time></trkpt><trkpt lat="9.9532077" lon="-84.1138865"><ele>1072.5</ele><time>2026-04-07T21:59:03.756Z</time></trkpt><trkpt lat="9.9531538" lon="-84.1138501"><ele>1073.0</ele><time>2026-04-07T21:59:04.756Z</time></trkpt><trkpt lat="9.9530481" lon="-84.1137767"><ele>1073.5</ele><time>2026-04-07T21:59:06.756Z</time></trkpt><trkpt lat="9.9529928" lon="-84.113738"><ele>1074.0</ele><time>2026-04-07T21:59:07.756Z</time></trkpt><trkpt lat="9.9529381" lon="-84.1136991"><ele>1074.5</ele><time>2026-04-07T21:59:08.755Z</time></trkpt><trkpt lat="9.9528797" lon="-84.1136605"><ele>1075.0</ele><time>2026-04-07T21:59:09.756Z</time></trkpt><trkpt lat="9.9528257" lon="-84.113624"><ele>1075.0</ele><time>2026-04-07T21:59:10.756Z</time></trkpt><trkpt lat="9.9527731" lon="-84.113583"><ele>1075.0</ele><time>2026-04-07T21:59:11.755Z</time></trkpt><trkpt lat="9.952712" lon="-84.1135433"><ele>1075.0</ele><time>2026-04-07T21:59:12.756Z</time></trkpt><trkpt lat="9.9526188" lon="-84.1134757"><ele>1075.0</ele><time>2026-04-07T21:59:14.756Z</time></trkpt><trkpt lat="9.9525331" lon="-84.1134123"><ele>1075.0</ele><time>2026-04-07T21:59:16.756Z</time></trkpt><trkpt lat="9.9524729" lon="-84.1133666"><ele>1075.0</ele><time>2026-04-07T21:59:18.755Z</time></trkpt><trkpt lat="9.9524052" lon="-84.1133182"><ele>1075.0</ele><time>2026-04-07T21:59:21.754Z</time></trkpt><trkpt lat="9.9523313" lon="-84.1132731"><ele>1075.0</ele><time>2026-04-07T21:59:24.754Z</time></trkpt><trkpt lat="9.9522657" lon="-84.1132276"><ele>1075.0</ele><time>2026-04-07T21:59:27.755Z</time></trkpt><trkpt lat="9.9521936" lon="-84.1131808"><ele>1075.0</ele><time>2026-04-07T21:59:30.756Z</time></trkpt><trkpt lat="9.9521193" lon="-84.1131406"><ele>1075.0</ele><time>2026-04-07T21:59:32.755Z</time></trkpt><trkpt lat="9.9520311" lon="-84.1130674"><ele>1075.0</ele><time>2026-04-07T21:59:34.754Z</time></trkpt><trkpt lat="9.9519752" lon="-84.1130239"><ele>1075.0</ele><time>2026-04-07T21:59:35.756Z</time></trkpt><trkpt lat="9.9519093" lon="-84.1129827"><ele>1075.0</ele><time>2026-04-07T21:59:36.755Z</time></trkpt><trkpt lat="9.9518446" lon="-84.112939"><ele>1075.0</ele><time>2026-04-07T21:59:37.756Z</time></trkpt><trkpt lat="9.9517816" lon="-84.1128999"><ele>1075.0</ele><time>2026-04-07T21:59:38.756Z</time></trkpt><trkpt lat="9.9517161" lon="-84.1128594"><ele>1075.0</ele><time>2026-04-07T21:59:39.756Z</time></trkpt><trkpt lat="9.9516492" lon="-84.1128043"><ele>1075.0</ele><time>2026-04-07T21:59:40.754Z</time></trkpt><trkpt lat="9.95158" lon="-84.1127572"><ele>1075.4285714285716</ele><time>2026-04-07T21:59:41.754Z</time></trkpt><trkpt lat="9.9515133" lon="-84.1127109"><ele>1075.857142857143</ele><time>2026-04-07T21:59:42.755Z</time></trkpt><trkpt lat="9.9514475" lon="-84.1126687"><ele>1076.2857142857142</ele><time>2026-04-07T21:59:43.755Z</time></trkpt><trkpt lat="9.9513919" lon="-84.1126264"><ele>1076.7142857142858</ele><time>2026-04-07T21:59:44.755Z</time></trkpt><trkpt lat="9.9513383" lon="-84.1125908"><ele>1077.142857142857</ele><time>2026-04-07T21:59:45.755Z</time></trkpt><trkpt lat="9.9512817" lon="-84.1125509"><ele>1077.5714285714287</ele><time>2026-04-07T21:59:46.755Z</time></trkpt><trkpt lat="9.9512199" lon="-84.1125069"><ele>1078.0</ele><time>2026-04-07T21:59:47.755Z</time></trkpt><trkpt lat="9.95116" lon="-84.1124664"><ele>1078.0</ele><time>2026-04-07T21:59:48.754Z</time></trkpt><trkpt lat="9.9510932" lon="-84.1124244"><ele>1078.0</ele><time>2026-04-07T21:59:49.755Z</time></trkpt><trkpt lat="9.9510349" lon="-84.112377"><ele>1078.0</ele><time>2026-04-07T21:59:50.755Z</time></trkpt><trkpt lat="9.9509665" lon="-84.1123381"><ele>1078.0</ele><time>2026-04-07T21:59:51.754Z</time></trkpt><trkpt lat="9.9509063" lon="-84.1122922"><ele>1078.0</ele><time>2026-04-07T21:59:52.755Z</time></trkpt><trkpt lat="9.9508431" lon="-84.1122484"><ele>1078.0</ele><time>2026-04-07T21:59:53.756Z</time></trkpt><trkpt lat="9.9507834" lon="-84.1122064"><ele>1078.8333333333333</ele><time>2026-04-07T21:59:54.756Z</time></trkpt><trkpt lat="9.9506758" lon="-84.1121301"><ele>1079.6666666666665</ele><time>2026-04-07T21:59:56.756Z</time></trkpt><trkpt lat="9.9506215" lon="-84.1120928"><ele>1080.5</ele><time>2026-04-07T21:59:57.754Z</time></trkpt><trkpt lat="9.9505572" lon="-84.1120478"><ele>1081.3333333333333</ele><time>2026-04-07T21:59:58.755Z</time></trkpt><trkpt lat="9.9504976" lon="-84.11201"><ele>1082.1666666666667</ele><time>2026-04-07T21:59:59.756Z</time></trkpt><trkpt lat="9.950436" lon="-84.1119704"><ele>1083.0</ele><time>2026-04-07T22:00:00.755Z</time></trkpt><trkpt lat="9.9503805" lon="-84.1119314"><ele>1083.0</ele><time>2026-04-07T22:00:01.754Z</time></trkpt><trkpt lat="9.9502723" lon="-84.1118568"><ele>1083.0</ele><time>2026-04-07T22:00:03.756Z</time></trkpt><trkpt lat="9.9502148" lon="-84.1118165"><ele>1083.0</ele><time>2026-04-07T22:00:04.755Z</time></trkpt><trkpt lat="9.9501483" lon="-84.1117758"><ele>1083.0</ele><time>2026-04-07T22:00:05.756Z</time></trkpt><trkpt lat="9.9500907" lon="-84.1117351"><ele>1083.0</ele><time>2026-04-07T22:00:06.756Z</time></trkpt><trkpt lat="9.9499908" lon="-84.1116687"><ele>1083.6</ele><time>2026-04-07T22:00:08.754Z</time></trkpt><trkpt lat="9.9499066" lon="-84.1116072"><ele>1084.1999999999998</ele><time>2026-04-07T22:00:10.756Z</time></trkpt><trkpt lat="9.9498107" lon="-84.1115448"><ele>1084.8</ele><time>2026-04-07T22:00:12.756Z</time></trkpt><trkpt lat="9.949757" lon="-84.111506"><ele>1085.3999999999999</ele><time>2026-04-07T22:00:13.754Z</time></trkpt><trkpt lat="9.9497048" lon="-84.1114654"><ele>1086.0</ele><time>2026-04-07T22:00:14.756Z</time></trkpt><trkpt lat="9.9496104" lon="-84.1114122"><ele>1086.2</ele><time>2026-04-07T22:00:16.756Z</time></trkpt><trkpt lat="9.9495379" lon="-84.1113636"><ele>1086.3999999999999</ele><time>2026-04-07T22:00:18.755Z</time></trkpt><trkpt lat="9.9494843" lon="-84.111321"><ele>1086.6</ele><time>2026-04-07T22:00:20.756Z</time></trkpt><trkpt lat="9.949402" lon="-84.1112673"><ele>1086.8</ele><time>2026-04-07T22:00:22.754Z</time></trkpt><trkpt lat="9.9493007" lon="-84.1111869"><ele>1087.0</ele><time>2026-04-07T22:00:24.755Z</time></trkpt><trkpt lat="9.9492072" lon="-84.1111205"><ele>1087.8</ele><time>2026-04-07T22:00:26.756Z</time></trkpt><trkpt lat="9.9491037" lon="-84.1110461"><ele>1088.6</ele><time>2026-04-07T22:00:28.755Z</time></trkpt><trkpt lat="9.9490481" lon="-84.1110097"><ele>1089.3999999999999</ele><time>2026-04-07T22:00:29.754Z</time></trkpt><trkpt lat="9.9489548" lon="-84.1109439"><ele>1090.2</ele><time>2026-04-07T22:00:31.755Z</time></trkpt><trkpt lat="9.9488975" lon="-84.1109038"><ele>1091.0</ele><time>2026-04-07T22:00:32.755Z</time></trkpt><trkpt lat="9.9488335" lon="-84.1108598"><ele>1091.0</ele><time>2026-04-07T22:00:33.755Z</time></trkpt><trkpt lat="9.9487712" lon="-84.1108181"><ele>1091.0</ele><time>2026-04-07T22:00:34.755Z</time></trkpt><trkpt lat="9.9487123" lon="-84.1107829"><ele>1091.0</ele><time>2026-04-07T22:00:35.755Z</time></trkpt><trkpt lat="9.9486508" lon="-84.110748"><ele>1091.0</ele><time>2026-04-07T22:00:36.754Z</time></trkpt><trkpt lat="9.9485599" lon="-84.1106999"><ele>1091.0</ele><time>2026-04-07T22:00:38.755Z</time></trkpt><trkpt lat="9.9484815" lon="-84.1106633"><ele>1091.0</ele><time>2026-04-07T22:00:40.755Z</time></trkpt><trkpt lat="9.9484153" lon="-84.1106247"><ele>1092.0</ele><time>2026-04-07T22:00:41.756Z</time></trkpt><trkpt lat="9.9483423" lon="-84.1105695"><ele>1093.0</ele><time>2026-04-07T22:00:42.755Z</time></trkpt><trkpt lat="9.9482616" lon="-84.1105159"><ele>1094.0</ele><time>2026-04-07T22:00:43.755Z</time></trkpt><trkpt lat="9.9481831" lon="-84.1104657"><ele>1095.0</ele><time>2026-04-07T22:00:44.756Z</time></trkpt><trkpt lat="9.9481034" lon="-84.1104118"><ele>1096.0</ele><time>2026-04-07T22:00:45.756Z</time></trkpt><trkpt lat="9.9480173" lon="-84.1103546"><ele>1096.0</ele><time>2026-04-07T22:00:46.756Z</time></trkpt><trkpt lat="9.947935" lon="-84.1102946"><ele>1096.0</ele><time>2026-04-07T22:00:47.755Z</time></trkpt><trkpt lat="9.9478494" lon="-84.1102353"><ele>1096.0</ele><time>2026-04-07T22:00:48.754Z</time></trkpt><trkpt lat="9.9477623" lon="-84.1101703"><ele>1096.0</ele><time>2026-04-07T22:00:49.755Z</time></trkpt><trkpt lat="9.9476685" lon="-84.1101038"><ele>1096.0</ele><time>2026-04-07T22:00:50.755Z</time></trkpt><trkpt lat="9.9475715" lon="-84.1100433"><ele>1096.5</ele><time>2026-04-07T22:00:51.755Z</time></trkpt><trkpt lat="9.9474688" lon="-84.1099969"><ele>1097.0</ele><time>2026-04-07T22:00:52.755Z</time></trkpt><trkpt lat="9.9473623" lon="-84.1099751"><ele>1097.5</ele><time>2026-04-07T22:00:53.754Z</time></trkpt><trkpt lat="9.9472475" lon="-84.1099726"><ele>1098.0</ele><time>2026-04-07T22:00:54.755Z</time></trkpt><trkpt lat="9.9471243" lon="-84.1099995"><ele>1098.0</ele><time>2026-04-07T22:00:55.756Z</time></trkpt><trkpt lat="9.9470003" lon="-84.1100415"><ele>1098.0</ele><time>2026-04-07T22:00:56.755Z</time></trkpt><trkpt lat="9.9468698" lon="-84.1100967"><ele>1098.0</ele><time>2026-04-07T22:00:57.754Z</time></trkpt><trkpt lat="9.9467402" lon="-84.1101553"><ele>1098.0</ele><time>2026-04-07T22:00:58.756Z</time></trkpt><trkpt lat="9.9466218" lon="-84.1102184"><ele>1099.0</ele><time>2026-04-07T22:00:59.754Z</time></trkpt><trkpt lat="9.9465065" lon="-84.1102812"><ele>1100.0</ele><time>2026-04-07T22:01:00.756Z</time></trkpt><trkpt lat="9.9463984" lon="-84.1103369"><ele>1101.0</ele><time>2026-04-07T22:01:01.754Z</time></trkpt><trkpt lat="9.9463005" lon="-84.11039"><ele>1102.0</ele><time>2026-04-07T22:01:02.755Z</time></trkpt><trkpt lat="9.9462087" lon="-84.1104528"><ele>1102.0</ele><time>2026-04-07T22:01:03.756Z</time></trkpt><trkpt lat="9.9461278" lon="-84.1105305"><ele>1102.0</ele><time>2026-04-07T22:01:04.756Z</time></trkpt><trkpt lat="9.9460726" lon="-84.1106201"><ele>1102.0</ele><time>2026-04-07T22:01:05.755Z</time></trkpt><trkpt lat="9.9460363" lon="-84.1107327"><ele>1102.0</ele><time>2026-04-07T22:01:06.755Z</time></trkpt><trkpt lat="9.9460134" lon="-84.1108579"><ele>1101.25</ele><time>2026-04-07T22:01:07.755Z</time></trkpt><trkpt lat="9.9460025" lon="-84.1109824"><ele>1100.5</ele><time>2026-04-07T22:01:08.755Z</time></trkpt><trkpt lat="9.9459894" lon="-84.1111019"><ele>1099.75</ele><time>2026-04-07T22:01:09.754Z</time></trkpt><trkpt lat="9.9459781" lon="-84.1112183"><ele>1099.0</ele><time>2026-04-07T22:01:10.754Z</time></trkpt><trkpt lat="9.9459659" lon="-84.1113439"><ele>1099.0</ele><time>2026-04-07T22:01:11.755Z</time></trkpt><trkpt lat="9.9459481" lon="-84.1114767"><ele>1099.0</ele><time>2026-04-07T22:01:12.754Z</time></trkpt><trkpt lat="9.9459273" lon="-84.1116198"><ele>1099.0</ele><time>2026-04-07T22:01:13.754Z</time></trkpt><trkpt lat="9.9459077" lon="-84.1117633"><ele>1099.0</ele><time>2026-04-07T22:01:14.754Z</time></trkpt><trkpt lat="9.9458937" lon="-84.111912"><ele>1096.0</ele><time>2026-04-07T22:01:15.755Z</time></trkpt><trkpt lat="9.9458762" lon="-84.1120661"><ele>1093.0</ele><time>2026-04-07T22:01:16.756Z</time></trkpt><trkpt lat="9.945864" lon="-84.1122347"><ele>1090.0</ele><time>2026-04-07T22:01:17.754Z</time></trkpt><trkpt lat="9.9458484" lon="-84.1123963"><ele>1089.3333333333333</ele><time>2026-04-07T22:01:18.755Z</time></trkpt><trkpt lat="9.9458345" lon="-84.1125553"><ele>1088.6666666666667</ele><time>2026-04-07T22:01:19.755Z</time></trkpt><trkpt lat="9.9458192" lon="-84.1127109"><ele>1088.0</ele><time>2026-04-07T22:01:20.756Z</time></trkpt><trkpt lat="9.9458007" lon="-84.1128597"><ele>1088.0</ele><time>2026-04-07T22:01:21.755Z</time></trkpt><trkpt lat="9.9457808" lon="-84.1130023"><ele>1088.0</ele><time>2026-04-07T22:01:22.754Z</time></trkpt><trkpt lat="9.9457615" lon="-84.1131381"><ele>1088.0</ele><time>2026-04-07T22:01:23.755Z</time></trkpt><trkpt lat="9.9457354" lon="-84.1132609"><ele>1088.0</ele><time>2026-04-07T22:01:24.754Z</time></trkpt><trkpt lat="9.9457116" lon="-84.113382"><ele>1087.5</ele><time>2026-04-07T22:01:25.753Z</time></trkpt><trkpt lat="9.9456822" lon="-84.113497"><ele>1087.0</ele><time>2026-04-07T22:01:26.755Z</time></trkpt><trkpt lat="9.9456489" lon="-84.1136168"><ele>1086.5</ele><time>2026-04-07T22:01:27.755Z</time></trkpt><trkpt lat="9.9456121" lon="-84.1137287"><ele>1086.0</ele><time>2026-04-07T22:01:28.755Z</time></trkpt><trkpt lat="9.9455766" lon="-84.1138274"><ele>1086.0</ele><time>2026-04-07T22:01:29.754Z</time></trkpt><trkpt lat="9.9455406" lon="-84.1139127"><ele>1086.0</ele><time>2026-04-07T22:01:30.754Z</time></trkpt><trkpt lat="9.9455074" lon="-84.1139923"><ele>1086.0</ele><time>2026-04-07T22:01:31.755Z</time></trkpt><trkpt lat="9.9454662" lon="-84.1140764"><ele>1086.0</ele><time>2026-04-07T22:01:32.755Z</time></trkpt><trkpt lat="9.9454237" lon="-84.1141621"><ele>1086.0</ele><time>2026-04-07T22:01:33.755Z</time></trkpt><trkpt lat="9.9453807" lon="-84.1142464"><ele>1083.0</ele><time>2026-04-07T22:01:34.755Z</time></trkpt><trkpt lat="9.9453386" lon="-84.1143246"><ele>1080.0</ele><time>2026-04-07T22:01:35.754Z</time></trkpt><trkpt lat="9.9452934" lon="-84.1143967"><ele>1077.0</ele><time>2026-04-07T22:01:36.754Z</time></trkpt><trkpt lat="9.9452437" lon="-84.1144752"><ele>1074.0</ele><time>2026-04-07T22:01:37.755Z</time></trkpt><trkpt lat="9.9451885" lon="-84.1145557"><ele>1071.0</ele><time>2026-04-07T22:01:38.754Z</time></trkpt><trkpt lat="9.9451252" lon="-84.1146349"><ele>1071.0</ele><time>2026-04-07T22:01:39.755Z</time></trkpt><trkpt lat="9.9450706" lon="-84.1147196"><ele>1071.0</ele><time>2026-04-07T22:01:40.755Z</time></trkpt><trkpt lat="9.9450128" lon="-84.1148036"><ele>1071.0</ele><time>2026-04-07T22:01:41.755Z</time></trkpt><trkpt lat="9.9449496" lon="-84.1148919"><ele>1071.0</ele><time>2026-04-07T22:01:42.755Z</time></trkpt><trkpt lat="9.9448836" lon="-84.1149849"><ele>1071.0</ele><time>2026-04-07T22:01:43.756Z</time></trkpt><trkpt lat="9.9448123" lon="-84.1150815"><ele>1073.0</ele><time>2026-04-07T22:01:44.755Z</time></trkpt><trkpt lat="9.9447447" lon="-84.1151699"><ele>1075.0</ele><time>2026-04-07T22:01:45.755Z</time></trkpt><trkpt lat="9.9446782" lon="-84.1152482"><ele>1077.0</ele><time>2026-04-07T22:01:46.755Z</time></trkpt><trkpt lat="9.944608" lon="-84.1153328"><ele>1079.0</ele><time>2026-04-07T22:01:47.754Z</time></trkpt><trkpt lat="9.9445406" lon="-84.1154088"><ele>1081.0</ele><time>2026-04-07T22:01:48.755Z</time></trkpt><trkpt lat="9.9444729" lon="-84.1154875"><ele>1081.0</ele><time>2026-04-07T22:01:49.754Z</time></trkpt><trkpt lat="9.9443984" lon="-84.1155674"><ele>1081.0</ele><time>2026-04-07T22:01:50.754Z</time></trkpt><trkpt lat="9.9443143" lon="-84.1156524"><ele>1081.0</ele><time>2026-04-07T22:01:51.754Z</time></trkpt><trkpt lat="9.9442263" lon="-84.1157421"><ele>1081.0</ele><time>2026-04-07T22:01:52.755Z</time></trkpt><trkpt lat="9.9441369" lon="-84.1158377"><ele>1083.25</ele><time>2026-04-07T22:01:53.756Z</time></trkpt><trkpt lat="9.9440563" lon="-84.115931"><ele>1085.5</ele><time>2026-04-07T22:01:54.755Z</time></trkpt><trkpt lat="9.9439643" lon="-84.1160242"><ele>1087.75</ele><time>2026-04-07T22:01:55.755Z</time></trkpt><trkpt lat="9.9438711" lon="-84.1161166"><ele>1090.0</ele><time>2026-04-07T22:01:56.755Z</time></trkpt><trkpt lat="9.943772" lon="-84.1162017"><ele>1090.0</ele><time>2026-04-07T22:01:57.755Z</time></trkpt><trkpt lat="9.9436792" lon="-84.1162928"><ele>1090.0</ele><time>2026-04-07T22:01:58.754Z</time></trkpt><trkpt lat="9.9435925" lon="-84.1163923"><ele>1090.0</ele><time>2026-04-07T22:01:59.756Z</time></trkpt><trkpt lat="9.9435017" lon="-84.1164827"><ele>1090.0</ele><time>2026-04-07T22:02:00.755Z</time></trkpt><trkpt lat="9.9434084" lon="-84.1165606"><ele>1090.6</ele><time>2026-04-07T22:02:01.754Z</time></trkpt><trkpt lat="9.943327" lon="-84.1166311"><ele>1091.2</ele><time>2026-04-07T22:02:02.755Z</time></trkpt><trkpt lat="9.9432383" lon="-84.1166923"><ele>1091.8</ele><time>2026-04-07T22:02:03.754Z</time></trkpt><trkpt lat="9.9431563" lon="-84.1167511"><ele>1092.4</ele><time>2026-04-07T22:02:04.754Z</time></trkpt><trkpt lat="9.9430748" lon="-84.1167998"><ele>1093.0</ele><time>2026-04-07T22:02:05.755Z</time></trkpt><trkpt lat="9.9429882" lon="-84.116837"><ele>1093.0</ele><time>2026-04-07T22:02:06.755Z</time></trkpt><trkpt lat="9.9428943" lon="-84.1168823"><ele>1093.0</ele><time>2026-04-07T22:02:07.755Z</time></trkpt><trkpt lat="9.9427882" lon="-84.116925"><ele>1093.0</ele><time>2026-04-07T22:02:08.755Z</time></trkpt><trkpt lat="9.9426813" lon="-84.1169629"><ele>1093.0</ele><time>2026-04-07T22:02:09.753Z</time></trkpt><trkpt lat="9.942574" lon="-84.1169972"><ele>1093.0</ele><time>2026-04-07T22:02:10.755Z</time></trkpt><trkpt lat="9.9424604" lon="-84.1170278"><ele>1094.0</ele><time>2026-04-07T22:02:11.756Z</time></trkpt><trkpt lat="9.9423423" lon="-84.1170578"><ele>1095.0</ele><time>2026-04-07T22:02:12.755Z</time></trkpt><trkpt lat="9.9422395" lon="-84.1170855"><ele>1096.0</ele><time>2026-04-07T22:02:13.755Z</time></trkpt><trkpt lat="9.9421402" lon="-84.1171051"><ele>1097.0</ele><time>2026-04-07T22:02:14.754Z</time></trkpt><trkpt lat="9.9420255" lon="-84.1171243"><ele>1098.0</ele><time>2026-04-07T22:02:15.754Z</time></trkpt><trkpt lat="9.9419094" lon="-84.1171412"><ele>1098.0</ele><time>2026-04-07T22:02:16.755Z</time></trkpt><trkpt lat="9.9417984" lon="-84.1171523"><ele>1098.0</ele><time>2026-04-07T22:02:17.755Z</time></trkpt><trkpt lat="9.9416952" lon="-84.1171654"><ele>1098.0</ele><time>2026-04-07T22:02:18.755Z</time></trkpt><trkpt lat="9.941605" lon="-84.1171767"><ele>1098.0</ele><time>2026-04-07T22:02:19.754Z</time></trkpt><trkpt lat="9.941515" lon="-84.1171819"><ele>1098.0</ele><time>2026-04-07T22:02:20.754Z</time></trkpt><trkpt lat="9.9414283" lon="-84.1171857"><ele>1098.0</ele><time>2026-04-07T22:02:21.755Z</time></trkpt><trkpt lat="9.9413306" lon="-84.1171933"><ele>1098.0</ele><time>2026-04-07T22:02:22.755Z</time></trkpt><trkpt lat="9.9412425" lon="-84.1171934"><ele>1098.0</ele><time>2026-04-07T22:02:23.755Z</time></trkpt><trkpt lat="9.9411433" lon="-84.1171885"><ele>1098.0</ele><time>2026-04-07T22:02:24.755Z</time></trkpt><trkpt lat="9.9410372" lon="-84.1171833"><ele>1098.0</ele><time>2026-04-07T22:02:25.755Z</time></trkpt><trkpt lat="9.9409299" lon="-84.1171781"><ele>1098.4</ele><time>2026-04-07T22:02:26.754Z</time></trkpt><trkpt lat="9.940827" lon="-84.1171721"><ele>1098.8</ele><time>2026-04-07T22:02:27.755Z</time></trkpt><trkpt lat="9.9407245" lon="-84.1171636"><ele>1099.2</ele><time>2026-04-07T22:02:28.755Z</time></trkpt><trkpt lat="9.940624" lon="-84.1171563"><ele>1099.6</ele><time>2026-04-07T22:02:29.755Z</time></trkpt><trkpt lat="9.9405151" lon="-84.1171475"><ele>1100.0</ele><time>2026-04-07T22:02:30.754Z</time></trkpt><trkpt lat="9.9403997" lon="-84.1171363"><ele>1100.0</ele><time>2026-04-07T22:02:31.754Z</time></trkpt><trkpt lat="9.9402819" lon="-84.1171231"><ele>1100.0</ele><time>2026-04-07T22:02:32.753Z</time></trkpt><trkpt lat="9.94017" lon="-84.1171112"><ele>1100.0</ele><time>2026-04-07T22:02:33.755Z</time></trkpt><trkpt lat="9.9400616" lon="-84.1171026"><ele>1100.0</ele><time>2026-04-07T22:02:34.754Z</time></trkpt><trkpt lat="9.939962" lon="-84.1170938"><ele>1100.0</ele><time>2026-04-07T22:02:35.754Z</time></trkpt><trkpt lat="9.9398682" lon="-84.1170887"><ele>1099.4</ele><time>2026-04-07T22:02:36.755Z</time></trkpt><trkpt lat="9.9397725" lon="-84.1170795"><ele>1098.8</ele><time>2026-04-07T22:02:37.754Z</time></trkpt><trkpt lat="9.9396751" lon="-84.1170686"><ele>1098.2</ele><time>2026-04-07T22:02:38.754Z</time></trkpt><trkpt lat="9.9395855" lon="-84.1170584"><ele>1097.6</ele><time>2026-04-07T22:02:39.754Z</time></trkpt><trkpt lat="9.9394962" lon="-84.1170463"><ele>1097.0</ele><time>2026-04-07T22:02:40.754Z</time></trkpt><trkpt lat="9.9394015" lon="-84.117031"><ele>1097.0</ele><time>2026-04-07T22:02:41.754Z</time></trkpt><trkpt lat="9.9393182" lon="-84.1170165"><ele>1097.0</ele><time>2026-04-07T22:02:42.755Z</time></trkpt><trkpt lat="9.9392387" lon="-84.1169985"><ele>1097.0</ele><time>2026-04-07T22:02:43.756Z</time></trkpt><trkpt lat="9.9391493" lon="-84.1169765"><ele>1097.0</ele><time>2026-04-07T22:02:44.755Z</time></trkpt><trkpt lat="9.9390681" lon="-84.1169591"><ele>1097.0</ele><time>2026-04-07T22:02:45.755Z</time></trkpt><trkpt lat="9.938982" lon="-84.1169343"><ele>1097.0</ele><time>2026-04-07T22:02:46.755Z</time></trkpt><trkpt lat="9.9388926" lon="-84.116912"><ele>1097.4</ele><time>2026-04-07T22:02:47.755Z</time></trkpt><trkpt lat="9.9388005" lon="-84.1168985"><ele>1097.8000000000002</ele><time>2026-04-07T22:02:48.755Z</time></trkpt><trkpt lat="9.9387159" lon="-84.1168752"><ele>1098.2</ele><time>2026-04-07T22:02:49.754Z</time></trkpt><trkpt lat="9.9386387" lon="-84.116852"><ele>1098.6000000000001</ele><time>2026-04-07T22:02:50.755Z</time></trkpt><trkpt lat="9.9385348" lon="-84.1168253"><ele>1099.0</ele><time>2026-04-07T22:02:51.756Z</time></trkpt><trkpt lat="9.9384428" lon="-84.116801"><ele>1099.1666666666665</ele><time>2026-04-07T22:02:52.755Z</time></trkpt><trkpt lat="9.9383473" lon="-84.1167761"><ele>1099.3333333333333</ele><time>2026-04-07T22:02:53.754Z</time></trkpt><trkpt lat="9.93826" lon="-84.1167543"><ele>1099.5</ele><time>2026-04-07T22:02:54.754Z</time></trkpt><trkpt lat="9.9381732" lon="-84.1167292"><ele>1099.6666666666667</ele><time>2026-04-07T22:02:55.755Z</time></trkpt><trkpt lat="9.938094" lon="-84.1167166"><ele>1099.8333333333335</ele><time>2026-04-07T22:02:56.754Z</time></trkpt><trkpt lat="9.9380203" lon="-84.1167028"><ele>1100.0</ele><time>2026-04-07T22:02:57.755Z</time></trkpt><trkpt lat="9.937941" lon="-84.116694"><ele>1100.0</ele><time>2026-04-07T22:02:58.754Z</time></trkpt><trkpt lat="9.937868" lon="-84.1166866"><ele>1100.0</ele><time>2026-04-07T22:02:59.754Z</time></trkpt><trkpt lat="9.9377943" lon="-84.1166706"><ele>1100.0</ele><time>2026-04-07T22:03:00.754Z</time></trkpt><trkpt lat="9.9377097" lon="-84.1166567"><ele>1100.0</ele><time>2026-04-07T22:03:01.753Z</time></trkpt><trkpt lat="9.9376061" lon="-84.1166501"><ele>1100.0</ele><time>2026-04-07T22:03:02.754Z</time></trkpt><trkpt lat="9.9374752" lon="-84.1166431"><ele>1099.3333333333335</ele><time>2026-04-07T22:03:03.754Z</time></trkpt><trkpt lat="9.9373172" lon="-84.1166447"><ele>1098.6666666666667</ele><time>2026-04-07T22:03:04.754Z</time></trkpt><trkpt lat="9.9371485" lon="-84.1166321"><ele>1098.0</ele><time>2026-04-07T22:03:05.755Z</time></trkpt><trkpt lat="9.9369686" lon="-84.1166164"><ele>1098.0</ele><time>2026-04-07T22:03:06.754Z</time></trkpt><trkpt lat="9.9367582" lon="-84.1166044"><ele>1098.0</ele><time>2026-04-07T22:03:07.755Z</time></trkpt><trkpt lat="9.9365403" lon="-84.1165928"><ele>1098.0</ele><time>2026-04-07T22:03:08.755Z</time></trkpt><trkpt lat="9.9363147" lon="-84.1165749"><ele>1097.6666666666667</ele><time>2026-04-07T22:03:09.754Z</time></trkpt><trkpt lat="9.9360927" lon="-84.1165573"><ele>1097.3333333333335</ele><time>2026-04-07T22:03:10.755Z</time></trkpt><trkpt lat="9.9358822" lon="-84.1165389"><ele>1097.0</ele><time>2026-04-07T22:03:11.755Z</time></trkpt><trkpt lat="9.9356729" lon="-84.1165125"><ele>1097.0</ele><time>2026-04-07T22:03:12.755Z</time></trkpt><trkpt lat="9.9354793" lon="-84.1164925"><ele>1097.0</ele><time>2026-04-07T22:03:13.754Z</time></trkpt><trkpt lat="9.9352853" lon="-84.1164709"><ele>1097.0</ele><time>2026-04-07T22:03:14.752Z</time></trkpt><trkpt lat="9.9350947" lon="-84.1164471"><ele>1097.6666666666667</ele><time>2026-04-07T22:03:15.755Z</time></trkpt><trkpt lat="9.9349131" lon="-84.1164249"><ele>1098.3333333333333</ele><time>2026-04-07T22:03:16.755Z</time></trkpt><trkpt lat="9.9347355" lon="-84.1164113"><ele>1099.0</ele><time>2026-04-07T22:03:17.755Z</time></trkpt><trkpt lat="9.9345687" lon="-84.1164011"><ele>1099.0</ele><time>2026-04-07T22:03:18.754Z</time></trkpt><trkpt lat="9.9344079" lon="-84.1163997"><ele>1099.0</ele><time>2026-04-07T22:03:19.754Z</time></trkpt><trkpt lat="9.9342466" lon="-84.1163887"><ele>1099.0</ele><time>2026-04-07T22:03:20.755Z</time></trkpt><trkpt lat="9.9340889" lon="-84.1163789"><ele>1098.25</ele><time>2026-04-07T22:03:21.755Z</time></trkpt><trkpt lat="9.9339375" lon="-84.1163692"><ele>1097.5</ele><time>2026-04-07T22:03:22.754Z</time></trkpt><trkpt lat="9.9337871" lon="-84.1163618"><ele>1096.75</ele><time>2026-04-07T22:03:23.754Z</time></trkpt><trkpt lat="9.9336477" lon="-84.1163568"><ele>1096.0</ele><time>2026-04-07T22:03:24.755Z</time></trkpt><trkpt lat="9.9335177" lon="-84.1163524"><ele>1096.0</ele><time>2026-04-07T22:03:25.754Z</time></trkpt><trkpt lat="9.9333969" lon="-84.1163493"><ele>1096.0</ele><time>2026-04-07T22:03:26.755Z</time></trkpt><trkpt lat="9.9332842" lon="-84.1163472"><ele>1096.0</ele><time>2026-04-07T22:03:27.755Z</time></trkpt><trkpt lat="9.9331706" lon="-84.116348"><ele>1096.0</ele><time>2026-04-07T22:03:28.753Z</time></trkpt><trkpt lat="9.9330376" lon="-84.1163452"><ele>1095.75</ele><time>2026-04-07T22:03:29.754Z</time></trkpt><trkpt lat="9.9329127" lon="-84.1163466"><ele>1095.5</ele><time>2026-04-07T22:03:30.754Z</time></trkpt><trkpt lat="9.9327934" lon="-84.1163459"><ele>1095.25</ele><time>2026-04-07T22:03:31.755Z</time></trkpt><trkpt lat="9.9326745" lon="-84.1163449"><ele>1095.0</ele><time>2026-04-07T22:03:32.755Z</time></trkpt><trkpt lat="9.9325571" lon="-84.116348"><ele>1092.5</ele><time>2026-04-07T22:03:33.755Z</time></trkpt><trkpt lat="9.9324389" lon="-84.1163489"><ele>1090.0</ele><time>2026-04-07T22:03:34.754Z</time></trkpt><trkpt lat="9.9323243" lon="-84.1163524"><ele>1087.5</ele><time>2026-04-07T22:03:35.753Z</time></trkpt><trkpt lat="9.9322071" lon="-84.1163531"><ele>1085.0</ele><time>2026-04-07T22:03:36.754Z</time></trkpt><trkpt lat="9.9320939" lon="-84.1163559"><ele>1085.0</ele><time>2026-04-07T22:03:37.755Z</time></trkpt><trkpt lat="9.9319811" lon="-84.1163607"><ele>1085.0</ele><time>2026-04-07T22:03:38.755Z</time></trkpt><trkpt lat="9.9318705" lon="-84.116363"><ele>1085.0</ele><time>2026-04-07T22:03:39.754Z</time></trkpt><trkpt lat="9.9317637" lon="-84.1163653"><ele>1085.0</ele><time>2026-04-07T22:03:40.755Z</time></trkpt><trkpt lat="9.9316587" lon="-84.1163699"><ele>1085.0</ele><time>2026-04-07T22:03:41.754Z</time></trkpt><trkpt lat="9.9315644" lon="-84.1163721"><ele>1083.0</ele><time>2026-04-07T22:03:42.755Z</time></trkpt><trkpt lat="9.9314793" lon="-84.1163748"><ele>1081.0</ele><time>2026-04-07T22:03:43.753Z</time></trkpt><trkpt lat="9.9314046" lon="-84.11638"><ele>1079.0</ele><time>2026-04-07T22:03:44.754Z</time></trkpt><trkpt lat="9.9313416" lon="-84.1163817"><ele>1077.0</ele><time>2026-04-07T22:03:45.754Z</time></trkpt><trkpt lat="9.9312785" lon="-84.1163829"><ele>1075.0</ele><time>2026-04-07T22:03:46.755Z</time></trkpt><trkpt lat="9.9312144" lon="-84.1163873"><ele>1073.0</ele><time>2026-04-07T22:03:47.755Z</time></trkpt><trkpt lat="9.9311366" lon="-84.1163876"><ele>1071.0</ele><time>2026-04-07T22:03:48.754Z</time></trkpt><trkpt lat="9.9310642" lon="-84.1163909"><ele>1071.0</ele><time>2026-04-07T22:03:49.755Z</time></trkpt><trkpt lat="9.9310001" lon="-84.1163923"><ele>1071.0</ele><time>2026-04-07T22:03:50.755Z</time></trkpt><trkpt lat="9.9309321" lon="-84.1163928"><ele>1071.0</ele><time>2026-04-07T22:03:51.755Z</time></trkpt><trkpt lat="9.9308567" lon="-84.1163968"><ele>1071.0</ele><time>2026-04-07T22:03:52.755Z</time></trkpt><trkpt lat="9.9307777" lon="-84.1164001"><ele>1071.0</ele><time>2026-04-07T22:03:53.755Z</time></trkpt><trkpt lat="9.9306902" lon="-84.1164021"><ele>1071.0</ele><time>2026-04-07T22:03:54.753Z</time></trkpt><trkpt lat="9.9306044" lon="-84.1164004"><ele>1069.6666666666667</ele><time>2026-04-07T22:03:55.754Z</time></trkpt><trkpt lat="9.9305259" lon="-84.1164009"><ele>1068.3333333333333</ele><time>2026-04-07T22:03:56.755Z</time></trkpt><trkpt lat="9.9304432" lon="-84.116402"><ele>1067.0</ele><time>2026-04-07T22:03:57.754Z</time></trkpt><trkpt lat="9.9303631" lon="-84.116405"><ele>1065.6666666666665</ele><time>2026-04-07T22:03:58.754Z</time></trkpt><trkpt lat="9.9302794" lon="-84.116407"><ele>1064.3333333333333</ele><time>2026-04-07T22:03:59.754Z</time></trkpt><trkpt lat="9.930195" lon="-84.1164079"><ele>1063.0</ele><time>2026-04-07T22:04:00.755Z</time></trkpt><trkpt lat="9.9301045" lon="-84.1164049"><ele>1064.5</ele><time>2026-04-07T22:04:01.755Z</time></trkpt><trkpt lat="9.9300112" lon="-84.1164051"><ele>1066.0</ele><time>2026-04-07T22:04:02.755Z</time></trkpt><trkpt lat="9.9299198" lon="-84.1164041"><ele>1067.5</ele><time>2026-04-07T22:04:03.755Z</time></trkpt><trkpt lat="9.9298311" lon="-84.1164044"><ele>1069.0</ele><time>2026-04-07T22:04:04.755Z</time></trkpt><trkpt lat="9.929746" lon="-84.1164027"><ele>1070.5</ele><time>2026-04-07T22:04:05.755Z</time></trkpt><trkpt lat="9.9296564" lon="-84.1164048"><ele>1072.0</ele><time>2026-04-07T22:04:06.753Z</time></trkpt><trkpt lat="9.9295656" lon="-84.1164008"><ele>1072.0</ele><time>2026-04-07T22:04:07.754Z</time></trkpt><trkpt lat="9.9294735" lon="-84.1163973"><ele>1072.0</ele><time>2026-04-07T22:04:08.754Z</time></trkpt><trkpt lat="9.9293841" lon="-84.1163875"><ele>1072.0</ele><time>2026-04-07T22:04:09.755Z</time></trkpt><trkpt lat="9.9292922" lon="-84.1163756"><ele>1072.0</ele><time>2026-04-07T22:04:10.755Z</time></trkpt><trkpt lat="9.9291937" lon="-84.1163525"><ele>1072.0</ele><time>2026-04-07T22:04:11.755Z</time></trkpt><trkpt lat="9.9291004" lon="-84.1163332"><ele>1074.0</ele><time>2026-04-07T22:04:12.755Z</time></trkpt><trkpt lat="9.9290162" lon="-84.1163185"><ele>1076.0</ele><time>2026-04-07T22:04:13.754Z</time></trkpt><trkpt lat="9.9289373" lon="-84.1163005"><ele>1078.0</ele><time>2026-04-07T22:04:14.753Z</time></trkpt><trkpt lat="9.9288647" lon="-84.1162816"><ele>1080.0</ele><time>2026-04-07T22:04:15.755Z</time></trkpt><trkpt lat="9.9287944" lon="-84.1162554"><ele>1082.0</ele><time>2026-04-07T22:04:16.755Z</time></trkpt><trkpt lat="9.9287235" lon="-84.1162301"><ele>1084.0</ele><time>2026-04-07T22:04:17.754Z</time></trkpt><trkpt lat="9.9286593" lon="-84.1162077"><ele>1084.0</ele><time>2026-04-07T22:04:18.755Z</time></trkpt><trkpt lat="9.9285879" lon="-84.1161823"><ele>1084.0</ele><time>2026-04-07T22:04:19.753Z</time></trkpt><trkpt lat="9.9285164" lon="-84.1161484"><ele>1084.0</ele><time>2026-04-07T22:04:20.755Z</time></trkpt><trkpt lat="9.9284325" lon="-84.11611"><ele>1084.0</ele><time>2026-04-07T22:04:21.755Z</time></trkpt><trkpt lat="9.9283517" lon="-84.1160677"><ele>1084.0</ele><time>2026-04-07T22:04:22.754Z</time></trkpt><trkpt lat="9.9282738" lon="-84.1160193"><ele>1084.0</ele><time>2026-04-07T22:04:23.754Z</time></trkpt><trkpt lat="9.928189" lon="-84.1159666"><ele>1083.8</ele><time>2026-04-07T22:04:24.756Z</time></trkpt><trkpt lat="9.9281014" lon="-84.1159074"><ele>1083.6000000000001</ele><time>2026-04-07T22:04:25.754Z</time></trkpt><trkpt lat="9.9280188" lon="-84.115844"><ele>1083.4</ele><time>2026-04-07T22:04:26.755Z</time></trkpt><trkpt lat="9.9279402" lon="-84.1157797"><ele>1083.2</ele><time>2026-04-07T22:04:27.755Z</time></trkpt><trkpt lat="9.9278598" lon="-84.1157111"><ele>1083.0</ele><time>2026-04-07T22:04:28.755Z</time></trkpt><trkpt lat="9.9277819" lon="-84.1156381"><ele>1085.0</ele><time>2026-04-07T22:04:29.755Z</time></trkpt><trkpt lat="9.9277069" lon="-84.1155662"><ele>1087.0</ele><time>2026-04-07T22:04:30.754Z</time></trkpt><trkpt lat="9.927639" lon="-84.1154906"><ele>1089.0</ele><time>2026-04-07T22:04:31.754Z</time></trkpt><trkpt lat="9.9275722" lon="-84.1154107"><ele>1091.0</ele><time>2026-04-07T22:04:32.753Z</time></trkpt><trkpt lat="9.9275084" lon="-84.1153281"><ele>1093.0</ele><time>2026-04-07T22:04:33.755Z</time></trkpt><trkpt lat="9.9274466" lon="-84.1152399"><ele>1093.0</ele><time>2026-04-07T22:04:34.755Z</time></trkpt><trkpt lat="9.9273831" lon="-84.1151472"><ele>1093.0</ele><time>2026-04-07T22:04:35.755Z</time></trkpt><trkpt lat="9.9273202" lon="-84.1150505"><ele>1093.0</ele><time>2026-04-07T22:04:36.755Z</time></trkpt><trkpt lat="9.9272662" lon="-84.1149532"><ele>1093.0</ele><time>2026-04-07T22:04:37.753Z</time></trkpt><trkpt lat="9.9272066" lon="-84.1148547"><ele>1093.0</ele><time>2026-04-07T22:04:38.754Z</time></trkpt><trkpt lat="9.927149" lon="-84.1147585"><ele>1095.25</ele><time>2026-04-07T22:04:39.753Z</time></trkpt><trkpt lat="9.9270938" lon="-84.1146537"><ele>1097.5</ele><time>2026-04-07T22:04:40.754Z</time></trkpt><trkpt lat="9.9270327" lon="-84.1145442"><ele>1099.75</ele><time>2026-04-07T22:04:41.755Z</time></trkpt><trkpt lat="9.9269718" lon="-84.1144383"><ele>1102.0</ele><time>2026-04-07T22:04:42.755Z</time></trkpt><trkpt lat="9.9269137" lon="-84.1143317"><ele>1102.0</ele><time>2026-04-07T22:04:43.755Z</time></trkpt><trkpt lat="9.9268516" lon="-84.1142212"><ele>1102.0</ele><time>2026-04-07T22:04:44.755Z</time></trkpt><trkpt lat="9.926793" lon="-84.114116"><ele>1102.0</ele><time>2026-04-07T22:04:45.755Z</time></trkpt><trkpt lat="9.9267342" lon="-84.114009"><ele>1102.0</ele><time>2026-04-07T22:04:46.754Z</time></trkpt><trkpt lat="9.9266678" lon="-84.1138979"><ele>1103.0</ele><time>2026-04-07T22:04:47.755Z</time></trkpt><trkpt lat="9.926602" lon="-84.1137877"><ele>1104.0</ele><time>2026-04-07T22:04:48.754Z</time></trkpt><trkpt lat="9.9265351" lon="-84.113683"><ele>1105.0</ele><time>2026-04-07T22:04:49.755Z</time></trkpt><trkpt lat="9.9264802" lon="-84.1135814"><ele>1106.0</ele><time>2026-04-07T22:04:50.754Z</time></trkpt><trkpt lat="9.926421" lon="-84.1134776"><ele>1106.0</ele><time>2026-04-07T22:04:51.755Z</time></trkpt><trkpt lat="9.9263641" lon="-84.1133706"><ele>1106.0</ele><time>2026-04-07T22:04:52.754Z</time></trkpt><trkpt lat="9.926311" lon="-84.1132713"><ele>1106.0</ele><time>2026-04-07T22:04:53.755Z</time></trkpt><trkpt lat="9.9262565" lon="-84.113173"><ele>1106.0</ele><time>2026-04-07T22:04:54.755Z</time></trkpt><trkpt lat="9.9261979" lon="-84.1130725"><ele>1106.75</ele><time>2026-04-07T22:04:55.755Z</time></trkpt><trkpt lat="9.9261428" lon="-84.1129701"><ele>1107.5</ele><time>2026-04-07T22:04:56.754Z</time></trkpt><trkpt lat="9.9260877" lon="-84.1128604"><ele>1108.25</ele><time>2026-04-07T22:04:57.755Z</time></trkpt><trkpt lat="9.9260284" lon="-84.1127444"><ele>1109.0</ele><time>2026-04-07T22:04:58.754Z</time></trkpt><trkpt lat="9.9259661" lon="-84.112627"><ele>1109.0</ele><time>2026-04-07T22:04:59.754Z</time></trkpt><trkpt lat="9.9258999" lon="-84.1125129"><ele>1109.0</ele><time>2026-04-07T22:05:00.755Z</time></trkpt><trkpt lat="9.9258376" lon="-84.1124009"><ele>1109.0</ele><time>2026-04-07T22:05:01.754Z</time></trkpt><trkpt lat="9.9257752" lon="-84.1122864"><ele>1109.0</ele><time>2026-04-07T22:05:02.752Z</time></trkpt><trkpt lat="9.9257068" lon="-84.1121694"><ele>1109.75</ele><time>2026-04-07T22:05:03.755Z</time></trkpt><trkpt lat="9.9256404" lon="-84.1120476"><ele>1110.5</ele><time>2026-04-07T22:05:04.755Z</time></trkpt><trkpt lat="9.9255697" lon="-84.1119279"><ele>1111.25</ele><time>2026-04-07T22:05:05.754Z</time></trkpt><trkpt lat="9.9255053" lon="-84.111817"><ele>1112.0</ele><time>2026-04-07T22:05:06.753Z</time></trkpt><trkpt lat="9.9254468" lon="-84.1117083"><ele>1112.0</ele><time>2026-04-07T22:05:07.754Z</time></trkpt><trkpt lat="9.9253878" lon="-84.1116052"><ele>1112.0</ele><time>2026-04-07T22:05:08.755Z</time></trkpt><trkpt lat="9.9253278" lon="-84.1115018"><ele>1112.0</ele><time>2026-04-07T22:05:09.754Z</time></trkpt><trkpt lat="9.9252696" lon="-84.1113985"><ele>1112.0</ele><time>2026-04-07T22:05:10.755Z</time></trkpt><trkpt lat="9.9252089" lon="-84.1112903"><ele>1113.25</ele><time>2026-04-07T22:05:11.754Z</time></trkpt><trkpt lat="9.9251492" lon="-84.1111823"><ele>1114.5</ele><time>2026-04-07T22:05:12.754Z</time></trkpt><trkpt lat="9.9250883" lon="-84.1110695"><ele>1115.75</ele><time>2026-04-07T22:05:13.753Z</time></trkpt><trkpt lat="9.9250236" lon="-84.1109567"><ele>1117.0</ele><time>2026-04-07T22:05:14.755Z</time></trkpt><trkpt lat="9.9249546" lon="-84.1108361"><ele>1117.75</ele><time>2026-04-07T22:05:15.755Z</time></trkpt><trkpt lat="9.9248877" lon="-84.1107081"><ele>1118.5</ele><time>2026-04-07T22:05:16.755Z</time></trkpt><trkpt lat="9.9248153" lon="-84.1105832"><ele>1119.25</ele><time>2026-04-07T22:05:17.754Z</time></trkpt><trkpt lat="9.9247448" lon="-84.110455"><ele>1120.0</ele><time>2026-04-07T22:05:18.753Z</time></trkpt><trkpt lat="9.9246742" lon="-84.1103288"><ele>1120.0</ele><time>2026-04-07T22:05:19.754Z</time></trkpt><trkpt lat="9.9246017" lon="-84.110198"><ele>1120.0</ele><time>2026-04-07T22:05:20.755Z</time></trkpt><trkpt lat="9.9245263" lon="-84.1100633"><ele>1120.0</ele><time>2026-04-07T22:05:21.753Z</time></trkpt><trkpt lat="9.9244536" lon="-84.1099315"><ele>1120.0</ele><time>2026-04-07T22:05:22.754Z</time></trkpt><trkpt lat="9.9243861" lon="-84.1098057"><ele>1120.0</ele><time>2026-04-07T22:05:23.755Z</time></trkpt><trkpt lat="9.9243131" lon="-84.1096721"><ele>1120.0</ele><time>2026-04-07T22:05:24.754Z</time></trkpt><trkpt lat="9.92424" lon="-84.1095391"><ele>1120.0</ele><time>2026-04-07T22:05:25.753Z</time></trkpt><trkpt lat="9.9241638" lon="-84.1093994"><ele>1120.0</ele><time>2026-04-07T22:05:26.755Z</time></trkpt><trkpt lat="9.9240894" lon="-84.1092696"><ele>1120.0</ele><time>2026-04-07T22:05:27.755Z</time></trkpt><trkpt lat="9.9240155" lon="-84.1091415"><ele>1120.0</ele><time>2026-04-07T22:05:28.752Z</time></trkpt><trkpt lat="9.923947" lon="-84.1090193"><ele>1120.0</ele><time>2026-04-07T22:05:29.752Z</time></trkpt><trkpt lat="9.9238776" lon="-84.1088934"><ele>1120.75</ele><time>2026-04-07T22:05:30.756Z</time></trkpt><trkpt lat="9.923803" lon="-84.1087692"><ele>1121.5</ele><time>2026-04-07T22:05:31.754Z</time></trkpt><trkpt lat="9.9237219" lon="-84.1086463"><ele>1122.25</ele><time>2026-04-07T22:05:32.753Z</time></trkpt><trkpt lat="9.9236372" lon="-84.108525"><ele>1123.0</ele><time>2026-04-07T22:05:33.755Z</time></trkpt><trkpt lat="9.9235515" lon="-84.1084165"><ele>1123.0</ele><time>2026-04-07T22:05:34.753Z</time></trkpt><trkpt lat="9.9234649" lon="-84.1083086"><ele>1123.0</ele><time>2026-04-07T22:05:35.753Z</time></trkpt><trkpt lat="9.9233722" lon="-84.1082063"><ele>1123.0</ele><time>2026-04-07T22:05:36.755Z</time></trkpt><trkpt lat="9.9232727" lon="-84.1081002"><ele>1123.0</ele><time>2026-04-07T22:05:37.754Z</time></trkpt><trkpt lat="9.923168" lon="-84.108003"><ele>1123.0</ele><time>2026-04-07T22:05:38.753Z</time></trkpt><trkpt lat="9.9230556" lon="-84.1079011"><ele>1123.0</ele><time>2026-04-07T22:05:39.754Z</time></trkpt><trkpt lat="9.9229402" lon="-84.1078061"><ele>1123.0</ele><time>2026-04-07T22:05:40.754Z</time></trkpt><trkpt lat="9.9228288" lon="-84.1077224"><ele>1123.0</ele><time>2026-04-07T22:05:41.753Z</time></trkpt><trkpt lat="9.9227157" lon="-84.1076459"><ele>1123.0</ele><time>2026-04-07T22:05:42.755Z</time></trkpt><trkpt lat="9.9225942" lon="-84.1075705"><ele>1123.0</ele><time>2026-04-07T22:05:43.754Z</time></trkpt><trkpt lat="9.9224768" lon="-84.1075054"><ele>1123.0</ele><time>2026-04-07T22:05:44.753Z</time></trkpt><trkpt lat="9.9223596" lon="-84.1074438"><ele>1123.0</ele><time>2026-04-07T22:05:45.755Z</time></trkpt><trkpt lat="9.9222435" lon="-84.1073873"><ele>1123.5</ele><time>2026-04-07T22:05:46.754Z</time></trkpt><trkpt lat="9.9221268" lon="-84.1073353"><ele>1124.0</ele><time>2026-04-07T22:05:47.755Z</time></trkpt><trkpt lat="9.9220076" lon="-84.1072878"><ele>1124.5</ele><time>2026-04-07T22:05:48.754Z</time></trkpt><trkpt lat="9.9218825" lon="-84.1072435"><ele>1125.0</ele><time>2026-04-07T22:05:49.755Z</time></trkpt><trkpt lat="9.9217571" lon="-84.107206"><ele>1123.5</ele><time>2026-04-07T22:05:50.755Z</time></trkpt><trkpt lat="9.9216333" lon="-84.1071758"><ele>1122.0</ele><time>2026-04-07T22:05:51.755Z</time></trkpt><trkpt lat="9.9215079" lon="-84.1071459"><ele>1120.5</ele><time>2026-04-07T22:05:52.755Z</time></trkpt><trkpt lat="9.9213745" lon="-84.1071141"><ele>1119.0</ele><time>2026-04-07T22:05:53.754Z</time></trkpt><trkpt lat="9.9212401" lon="-84.1070819"><ele>1119.0</ele><time>2026-04-07T22:05:54.754Z</time></trkpt><trkpt lat="9.9210918" lon="-84.1070547"><ele>1119.0</ele><time>2026-04-07T22:05:55.754Z</time></trkpt><trkpt lat="9.9209458" lon="-84.1070228"><ele>1119.0</ele><time>2026-04-07T22:05:56.755Z</time></trkpt><trkpt lat="9.9208076" lon="-84.1069934"><ele>1119.0</ele><time>2026-04-07T22:05:57.754Z</time></trkpt><trkpt lat="9.9206772" lon="-84.1069643"><ele>1117.25</ele><time>2026-04-07T22:05:58.755Z</time></trkpt><trkpt lat="9.9205414" lon="-84.106939"><ele>1115.5</ele><time>2026-04-07T22:05:59.753Z</time></trkpt><trkpt lat="9.9204021" lon="-84.1069078"><ele>1113.75</ele><time>2026-04-07T22:06:00.754Z</time></trkpt><trkpt lat="9.9202611" lon="-84.1068785"><ele>1112.0</ele><time>2026-04-07T22:06:01.754Z</time></trkpt><trkpt lat="9.9201227" lon="-84.1068539"><ele>1111.75</ele><time>2026-04-07T22:06:02.755Z</time></trkpt><trkpt lat="9.9199866" lon="-84.1068305"><ele>1111.5</ele><time>2026-04-07T22:06:03.754Z</time></trkpt><trkpt lat="9.9198508" lon="-84.106808"><ele>1111.25</ele><time>2026-04-07T22:06:04.755Z</time></trkpt><trkpt lat="9.9197195" lon="-84.106786"><ele>1111.0</ele><time>2026-04-07T22:06:05.753Z</time></trkpt><trkpt lat="9.9195849" lon="-84.1067638"><ele>1111.0</ele><time>2026-04-07T22:06:06.754Z</time></trkpt><trkpt lat="9.9194517" lon="-84.1067369"><ele>1111.0</ele><time>2026-04-07T22:06:07.755Z</time></trkpt><trkpt lat="9.9193262" lon="-84.1067144"><ele>1111.0</ele><time>2026-04-07T22:06:08.754Z</time></trkpt><trkpt lat="9.919198" lon="-84.1066912"><ele>1111.0</ele><time>2026-04-07T22:06:09.753Z</time></trkpt><trkpt lat="9.9190664" lon="-84.106664"><ele>1111.0</ele><time>2026-04-07T22:06:10.753Z</time></trkpt><trkpt lat="9.9189407" lon="-84.10664"><ele>1111.0</ele><time>2026-04-07T22:06:11.754Z</time></trkpt><trkpt lat="9.9188145" lon="-84.1066178"><ele>1111.0</ele><time>2026-04-07T22:06:12.754Z</time></trkpt><trkpt lat="9.9186834" lon="-84.1065906"><ele>1111.0</ele><time>2026-04-07T22:06:13.754Z</time></trkpt><trkpt lat="9.9185512" lon="-84.1065637"><ele>1111.0</ele><time>2026-04-07T22:06:14.754Z</time></trkpt><trkpt lat="9.9184164" lon="-84.106538"><ele>1111.0</ele><time>2026-04-07T22:06:15.755Z</time></trkpt><trkpt lat="9.9182752" lon="-84.106512"><ele>1111.0</ele><time>2026-04-07T22:06:16.753Z</time></trkpt><trkpt lat="9.9181269" lon="-84.1064857"><ele>1111.0</ele><time>2026-04-07T22:06:17.754Z</time></trkpt><trkpt lat="9.9179788" lon="-84.1064593"><ele>1110.5</ele><time>2026-04-07T22:06:18.755Z</time></trkpt><trkpt lat="9.9178329" lon="-84.1064312"><ele>1110.0</ele><time>2026-04-07T22:06:19.755Z</time></trkpt><trkpt lat="9.9176946" lon="-84.1064071"><ele>1109.5</ele><time>2026-04-07T22:06:20.753Z</time></trkpt><trkpt lat="9.9175605" lon="-84.1063837"><ele>1109.0</ele><time>2026-04-07T22:06:21.755Z</time></trkpt><trkpt lat="9.917422" lon="-84.1063558"><ele>1109.0</ele><time>2026-04-07T22:06:22.753Z</time></trkpt><trkpt lat="9.9172818" lon="-84.1063251"><ele>1109.0</ele><time>2026-04-07T22:06:23.754Z</time></trkpt><trkpt lat="9.9171354" lon="-84.1062962"><ele>1109.0</ele><time>2026-04-07T22:06:24.755Z</time></trkpt><trkpt lat="9.9169942" lon="-84.1062713"><ele>1109.0</ele><time>2026-04-07T22:06:25.754Z</time></trkpt><trkpt lat="9.9168542" lon="-84.1062449"><ele>1109.5</ele><time>2026-04-07T22:06:26.754Z</time></trkpt><trkpt lat="9.9167099" lon="-84.1062153"><ele>1110.0</ele><time>2026-04-07T22:06:27.754Z</time></trkpt><trkpt lat="9.9165644" lon="-84.1061893"><ele>1110.5</ele><time>2026-04-07T22:06:28.753Z</time></trkpt><trkpt lat="9.9164214" lon="-84.1061636"><ele>1111.0</ele><time>2026-04-07T22:06:29.753Z</time></trkpt><trkpt lat="9.9162727" lon="-84.1061358"><ele>1111.0</ele><time>2026-04-07T22:06:30.755Z</time></trkpt><trkpt lat="9.9161216" lon="-84.1061107"><ele>1111.0</ele><time>2026-04-07T22:06:31.755Z</time></trkpt><trkpt lat="9.915981" lon="-84.1060846"><ele>1111.0</ele><time>2026-04-07T22:06:32.755Z</time></trkpt><trkpt lat="9.9158468" lon="-84.1060602"><ele>1111.0</ele><time>2026-04-07T22:06:33.754Z</time></trkpt><trkpt lat="9.9157215" lon="-84.1060376"><ele>1111.75</ele><time>2026-04-07T22:06:34.754Z</time></trkpt><trkpt lat="9.9156057" lon="-84.106027"><ele>1112.5</ele><time>2026-04-07T22:06:35.753Z</time></trkpt><trkpt lat="9.9154868" lon="-84.1060197"><ele>1113.25</ele><time>2026-04-07T22:06:36.753Z</time></trkpt><trkpt lat="9.915354" lon="-84.1060157"><ele>1114.0</ele><time>2026-04-07T22:06:37.754Z</time></trkpt><trkpt lat="9.9152025" lon="-84.1060029"><ele>1113.0</ele><time>2026-04-07T22:06:38.753Z</time></trkpt><trkpt lat="9.9150505" lon="-84.1059855"><ele>1112.0</ele><time>2026-04-07T22:06:39.754Z</time></trkpt><trkpt lat="9.914881" lon="-84.1059529"><ele>1111.0</ele><time>2026-04-07T22:06:40.754Z</time></trkpt><trkpt lat="9.9147065" lon="-84.1059222"><ele>1111.0</ele><time>2026-04-07T22:06:41.753Z</time></trkpt><trkpt lat="9.9145305" lon="-84.1058875"><ele>1111.0</ele><time>2026-04-07T22:06:42.754Z</time></trkpt><trkpt lat="9.9143525" lon="-84.1058404"><ele>1111.0</ele><time>2026-04-07T22:06:43.753Z</time></trkpt><trkpt lat="9.9141892" lon="-84.105783"><ele>1110.6666666666665</ele><time>2026-04-07T22:06:44.754Z</time></trkpt><trkpt lat="9.9140354" lon="-84.1057185"><ele>1110.3333333333333</ele><time>2026-04-07T22:06:45.754Z</time></trkpt><trkpt lat="9.9138864" lon="-84.1056423"><ele>1110.0</ele><time>2026-04-07T22:06:46.754Z</time></trkpt><trkpt lat="9.9137385" lon="-84.1055548"><ele>1110.0</ele><time>2026-04-07T22:06:47.754Z</time></trkpt><trkpt lat="9.913595" lon="-84.105454"><ele>1110.0</ele><time>2026-04-07T22:06:48.754Z</time></trkpt><trkpt lat="9.9134594" lon="-84.1053357"><ele>1110.0</ele><time>2026-04-07T22:06:49.754Z</time></trkpt><trkpt lat="9.9133315" lon="-84.1052086"><ele>1110.3333333333333</ele><time>2026-04-07T22:06:50.755Z</time></trkpt><trkpt lat="9.9132148" lon="-84.1050716"><ele>1110.6666666666665</ele><time>2026-04-07T22:06:51.754Z</time></trkpt><trkpt lat="9.9131127" lon="-84.1049364"><ele>1111.0</ele><time>2026-04-07T22:06:52.754Z</time></trkpt><trkpt lat="9.9130239" lon="-84.1047969"><ele>1111.0</ele><time>2026-04-07T22:06:53.755Z</time></trkpt><trkpt lat="9.912942" lon="-84.1046562"><ele>1111.0</ele><time>2026-04-07T22:06:54.754Z</time></trkpt><trkpt lat="9.912869" lon="-84.1044979"><ele>1111.0</ele><time>2026-04-07T22:06:55.754Z</time></trkpt><trkpt lat="9.9128053" lon="-84.104332"><ele>1111.0</ele><time>2026-04-07T22:06:56.754Z</time></trkpt><trkpt lat="9.9127476" lon="-84.1041567"><ele>1111.0</ele><time>2026-04-07T22:06:57.754Z</time></trkpt><trkpt lat="9.91269" lon="-84.1039887"><ele>1111.0</ele><time>2026-04-07T22:06:58.754Z</time></trkpt><trkpt lat="9.9126326" lon="-84.1038248"><ele>1112.6666666666665</ele><time>2026-04-07T22:06:59.754Z</time></trkpt><trkpt lat="9.9125746" lon="-84.1036614"><ele>1114.3333333333333</ele><time>2026-04-07T22:07:00.755Z</time></trkpt><trkpt lat="9.91252" lon="-84.1035012"><ele>1116.0</ele><time>2026-04-07T22:07:01.753Z</time></trkpt><trkpt lat="9.9124651" lon="-84.1033386"><ele>1118.0</ele><time>2026-04-07T22:07:02.753Z</time></trkpt><trkpt lat="9.9124101" lon="-84.1031769"><ele>1120.0</ele><time>2026-04-07T22:07:03.753Z</time></trkpt><trkpt lat="9.9123506" lon="-84.1030115"><ele>1122.0</ele><time>2026-04-07T22:07:04.755Z</time></trkpt><trkpt lat="9.9122925" lon="-84.1028487"><ele>1122.0</ele><time>2026-04-07T22:07:05.754Z</time></trkpt><trkpt lat="9.9122279" lon="-84.1026842"><ele>1122.0</ele><time>2026-04-07T22:07:06.754Z</time></trkpt><trkpt lat="9.9121717" lon="-84.1025343"><ele>1122.0</ele><time>2026-04-07T22:07:07.754Z</time></trkpt><trkpt lat="9.9121103" lon="-84.1023805"><ele>1122.25</ele><time>2026-04-07T22:07:08.754Z</time></trkpt><trkpt lat="9.91206" lon="-84.1022535"><ele>1122.5</ele><time>2026-04-07T22:07:09.755Z</time></trkpt><trkpt lat="9.9120141" lon="-84.1021242"><ele>1122.75</ele><time>2026-04-07T22:07:10.755Z</time></trkpt><trkpt lat="9.9119757" lon="-84.102007"><ele>1123.0</ele><time>2026-04-07T22:07:11.755Z</time></trkpt><trkpt lat="9.9119362" lon="-84.1018937"><ele>1123.0</ele><time>2026-04-07T22:07:12.754Z</time></trkpt><trkpt lat="9.9118946" lon="-84.1017811"><ele>1123.0</ele><time>2026-04-07T22:07:13.754Z</time></trkpt><trkpt lat="9.9118501" lon="-84.1016685"><ele>1123.0</ele><time>2026-04-07T22:07:14.754Z</time></trkpt><trkpt lat="9.9118046" lon="-84.1015471"><ele>1123.0</ele><time>2026-04-07T22:07:15.754Z</time></trkpt><trkpt lat="9.9117591" lon="-84.101433"><ele>1122.6</ele><time>2026-04-07T22:07:16.754Z</time></trkpt><trkpt lat="9.9117171" lon="-84.101325"><ele>1122.1999999999998</ele><time>2026-04-07T22:07:17.755Z</time></trkpt><trkpt lat="9.9116761" lon="-84.1012159"><ele>1121.8</ele><time>2026-04-07T22:07:18.754Z</time></trkpt><trkpt lat="9.9116454" lon="-84.1011157"><ele>1121.3999999999999</ele><time>2026-04-07T22:07:19.754Z</time></trkpt><trkpt lat="9.9116119" lon="-84.1010153"><ele>1121.0</ele><time>2026-04-07T22:07:20.755Z</time></trkpt><trkpt lat="9.9115798" lon="-84.1009181"><ele>1121.0</ele><time>2026-04-07T22:07:21.754Z</time></trkpt><trkpt lat="9.9115444" lon="-84.1008244"><ele>1121.0</ele><time>2026-04-07T22:07:22.754Z</time></trkpt><trkpt lat="9.9115131" lon="-84.1007252"><ele>1121.0</ele><time>2026-04-07T22:07:23.754Z</time></trkpt><trkpt lat="9.9114836" lon="-84.1006342"><ele>1121.0</ele><time>2026-04-07T22:07:24.755Z</time></trkpt><trkpt lat="9.9114515" lon="-84.100543"><ele>1121.0</ele><time>2026-04-07T22:07:25.753Z</time></trkpt><trkpt lat="9.9114237" lon="-84.1004539"><ele>1120.8333333333335</ele><time>2026-04-07T22:07:26.755Z</time></trkpt><trkpt lat="9.9113935" lon="-84.1003724"><ele>1120.6666666666667</ele><time>2026-04-07T22:07:27.753Z</time></trkpt><trkpt lat="9.9113677" lon="-84.1002943"><ele>1120.5</ele><time>2026-04-07T22:07:28.754Z</time></trkpt><trkpt lat="9.9113418" lon="-84.1002212"><ele>1120.3333333333333</ele><time>2026-04-07T22:07:29.754Z</time></trkpt><trkpt lat="9.9113184" lon="-84.1001515"><ele>1120.1666666666665</ele><time>2026-04-07T22:07:30.754Z</time></trkpt><trkpt lat="9.9112999" lon="-84.1000807"><ele>1120.0</ele><time>2026-04-07T22:07:31.753Z</time></trkpt><trkpt lat="9.9112788" lon="-84.1000101"><ele>1120.0</ele><time>2026-04-07T22:07:32.753Z</time></trkpt><trkpt lat="9.9112588" lon="-84.0999458"><ele>1120.0</ele><time>2026-04-07T22:07:33.754Z</time></trkpt><trkpt lat="9.9112223" lon="-84.0998334"><ele>1120.0</ele><time>2026-04-07T22:07:35.753Z</time></trkpt><trkpt lat="9.9111702" lon="-84.0997506"><ele>1120.0</ele><time>2026-04-07T22:07:37.753Z</time></trkpt><trkpt lat="9.9110499" lon="-84.099689"><ele>1120.0</ele><time>2026-04-07T22:07:39.754Z</time></trkpt><trkpt lat="9.910975" lon="-84.099657"><ele>1119.6</ele><time>2026-04-07T22:07:40.754Z</time></trkpt><trkpt lat="9.9109091" lon="-84.0996094"><ele>1119.2</ele><time>2026-04-07T22:07:41.753Z</time></trkpt><trkpt lat="9.9108493" lon="-84.0995459"><ele>1118.8</ele><time>2026-04-07T22:07:42.754Z</time></trkpt><trkpt lat="9.9107992" lon="-84.0994808"><ele>1118.4</ele><time>2026-04-07T22:07:43.754Z</time></trkpt><trkpt lat="9.9107486" lon="-84.0994219"><ele>1118.0</ele><time>2026-04-07T22:07:44.753Z</time></trkpt><trkpt lat="9.9047758" lon="-84.1000756"><ele>1120.4</ele><time>2026-04-07T22:10:16.752Z</time></trkpt><trkpt lat="9.9046431" lon="-84.100051"><ele>1122.8</ele><time>2026-04-07T22:10:18.754Z</time></trkpt><trkpt lat="9.90451" lon="-84.1000254"><ele>1125.2</ele><time>2026-04-07T22:10:20.753Z</time></trkpt><trkpt lat="9.9044068" lon="-84.1000048"><ele>1127.6</ele><time>2026-04-07T22:10:22.754Z</time></trkpt><trkpt lat="9.9043397" lon="-84.0999925"><ele>1130.0</ele><time>2026-04-07T22:10:25.754Z</time></trkpt><trkpt lat="9.904264" lon="-84.0999812"><ele>1129.75</ele><time>2026-04-07T22:10:29.753Z</time></trkpt><trkpt lat="9.9042001" lon="-84.0999696"><ele>1129.5</ele><time>2026-04-07T22:10:31.753Z</time></trkpt><trkpt lat="9.9041305" lon="-84.0999541"><ele>1129.25</ele><time>2026-04-07T22:10:33.752Z</time></trkpt><trkpt lat="9.9040552" lon="-84.0999362"><ele>1129.0</ele><time>2026-04-07T22:10:51.754Z</time></trkpt><trkpt lat="9.9033505" lon="-84.0998167"><ele>1128.8333333333333</ele><time>2026-04-07T22:11:04.753Z</time></trkpt><trkpt lat="9.903276" lon="-84.0998014"><ele>1128.6666666666665</ele><time>2026-04-07T22:11:05.753Z</time></trkpt><trkpt lat="9.9032079" lon="-84.099787"><ele>1128.5</ele><time>2026-04-07T22:11:06.752Z</time></trkpt><trkpt lat="9.9031425" lon="-84.0997764"><ele>1128.3333333333333</ele><time>2026-04-07T22:11:07.753Z</time></trkpt><trkpt lat="9.9030705" lon="-84.0997625"><ele>1128.1666666666667</ele><time>2026-04-07T22:11:08.753Z</time></trkpt><trkpt lat="9.9029935" lon="-84.0997484"><ele>1128.0</ele><time>2026-04-07T22:11:09.753Z</time></trkpt><trkpt lat="9.9029076" lon="-84.0997313"><ele>1128.0</ele><time>2026-04-07T22:11:10.754Z</time></trkpt><trkpt lat="9.9028163" lon="-84.0997157"><ele>1128.0</ele><time>2026-04-07T22:11:11.754Z</time></trkpt><trkpt lat="9.902732" lon="-84.0997037"><ele>1128.0</ele><time>2026-04-07T22:11:12.736Z</time></trkpt><trkpt lat="9.9026455" lon="-84.099686"><ele>1128.0</ele><time>2026-04-07T22:11:13.732Z</time></trkpt><trkpt lat="9.902564" lon="-84.09967"><ele>1128.0</ele><time>2026-04-07T22:11:14.732Z</time></trkpt><trkpt lat="9.9024887" lon="-84.0996538"><ele>1128.0</ele><time>2026-04-07T22:11:15.731Z</time></trkpt><trkpt lat="9.9024181" lon="-84.0996364"><ele>1128.3333333333333</ele><time>2026-04-07T22:11:16.732Z</time></trkpt><trkpt lat="9.9023448" lon="-84.0996207"><ele>1128.6666666666667</ele><time>2026-04-07T22:11:17.734Z</time></trkpt><trkpt lat="9.9022575" lon="-84.0996109"><ele>1129.0</ele><time>2026-04-07T22:11:18.734Z</time></trkpt><trkpt lat="9.9021667" lon="-84.0995922"><ele>1129.3333333333335</ele><time>2026-04-07T22:11:19.733Z</time></trkpt><trkpt lat="9.9020702" lon="-84.0995714"><ele>1129.6666666666667</ele><time>2026-04-07T22:11:20.733Z</time></trkpt><trkpt lat="9.9019854" lon="-84.0995511"><ele>1130.0</ele><time>2026-04-07T22:11:21.734Z</time></trkpt><trkpt lat="9.9019057" lon="-84.099535"><ele>1130.0</ele><time>2026-04-07T22:11:22.733Z</time></trkpt><trkpt lat="9.9018261" lon="-84.0995199"><ele>1130.0</ele><time>2026-04-07T22:11:23.734Z</time></trkpt><trkpt lat="9.9017399" lon="-84.0995014"><ele>1130.0</ele><time>2026-04-07T22:11:24.733Z</time></trkpt><trkpt lat="9.9016578" lon="-84.0994834"><ele>1130.0</ele><time>2026-04-07T22:11:25.734Z</time></trkpt><trkpt lat="9.9015814" lon="-84.0994668"><ele>1130.0</ele><time>2026-04-07T22:11:26.734Z</time></trkpt><trkpt lat="9.9015085" lon="-84.0994525"><ele>1130.0</ele><time>2026-04-07T22:11:27.734Z</time></trkpt><trkpt lat="9.9014404" lon="-84.0994414"><ele>1130.4</ele><time>2026-04-07T22:11:28.733Z</time></trkpt><trkpt lat="9.9013304" lon="-84.0994293"><ele>1130.8</ele><time>2026-04-07T22:11:30.734Z</time></trkpt><trkpt lat="9.9012436" lon="-84.0994067"><ele>1131.2</ele><time>2026-04-07T22:11:32.733Z</time></trkpt><trkpt lat="9.9012088" lon="-84.0993453"><ele>1131.6</ele><time>2026-04-07T22:11:35.733Z</time></trkpt><trkpt lat="9.9011069" lon="-84.0992916"><ele>1132.0</ele><time>2026-04-07T22:18:15.751Z</time></trkpt><trkpt lat="9.9010414" lon="-84.0992779"><ele>1132.0</ele><time>2026-04-07T22:18:16.751Z</time></trkpt><trkpt lat="9.9009701" lon="-84.0992234"><ele>1132.0</ele><time>2026-04-07T22:18:18.751Z</time></trkpt><trkpt lat="9.9009638" lon="-84.0991166"><ele>1132.0</ele><time>2026-04-07T22:18:20.751Z</time></trkpt><trkpt lat="9.9009743" lon="-84.0990483"><ele>1132.0</ele><time>2026-04-07T22:18:21.75Z</time></trkpt><trkpt lat="9.9009908" lon="-84.0989811"><ele>1132.0</ele><time>2026-04-07T22:18:22.751Z</time></trkpt><trkpt lat="9.9010103" lon="-84.0988618"><ele>1132.1666666666665</ele><time>2026-04-07T22:18:24.75Z</time></trkpt><trkpt lat="9.9009527" lon="-84.0988073"><ele>1132.3333333333333</ele><time>2026-04-07T22:18:26.752Z</time></trkpt><trkpt lat="9.9008918" lon="-84.0988437"><ele>1132.5</ele><time>2026-04-07T22:18:28.751Z</time></trkpt><trkpt lat="9.9008409" lon="-84.098895"><ele>1132.6666666666667</ele><time>2026-04-07T22:18:31.751Z</time></trkpt><trkpt lat="9.9007543" lon="-84.0989032"><ele>1132.8333333333335</ele><time>2026-04-07T22:18:36.752Z</time></trkpt><trkpt lat="9.9006842" lon="-84.0988162"><ele>1133.0</ele><time>2026-04-07T22:18:38.751Z</time></trkpt><trkpt lat="9.9006344" lon="-84.0987309"><ele>1131.6</ele><time>2026-04-07T22:18:40.752Z</time></trkpt><trkpt lat="9.9005809" lon="-84.0986446"><ele>1130.1999999999998</ele><time>2026-04-07T22:18:42.752Z</time></trkpt><trkpt lat="9.9005229" lon="-84.0985491"><ele>1128.8</ele><time>2026-04-07T22:18:44.751Z</time></trkpt><trkpt lat="9.9004613" lon="-84.0984461"><ele>1127.3999999999999</ele><time>2026-04-07T22:18:46.751Z</time></trkpt><trkpt lat="9.9003958" lon="-84.0983468"><ele>1126.0</ele><time>2026-04-07T22:18:48.752Z</time></trkpt><trkpt lat="9.9003595" lon="-84.098294"><ele>1125.6666666666665</ele><time>2026-04-07T22:18:49.752Z</time></trkpt><trkpt lat="9.9002956" lon="-84.0981891"><ele>1125.3333333333333</ele><time>2026-04-07T22:18:51.75Z</time></trkpt><trkpt lat="9.900259" lon="-84.0981314"><ele>1125.0</ele><time>2026-04-07T22:18:52.751Z</time></trkpt><trkpt lat="9.9002155" lon="-84.0980677"><ele>1124.6666666666667</ele><time>2026-04-07T22:18:53.752Z</time></trkpt><trkpt lat="9.9001701" lon="-84.0980131"><ele>1124.3333333333335</ele><time>2026-04-07T22:18:54.752Z</time></trkpt><trkpt lat="9.9001292" lon="-84.0979554"><ele>1124.0</ele><time>2026-04-07T22:18:55.752Z</time></trkpt><trkpt lat="9.9000877" lon="-84.097886"><ele>1124.0</ele><time>2026-04-07T22:18:56.752Z</time></trkpt><trkpt lat="9.900063" lon="-84.0978188"><ele>1124.0</ele><time>2026-04-07T22:18:57.752Z</time></trkpt><trkpt lat="9.9000533" lon="-84.0977522"><ele>1124.0</ele><time>2026-04-07T22:18:58.752Z</time></trkpt><trkpt lat="9.9000593" lon="-84.0976854"><ele>1124.0</ele><time>2026-04-07T22:18:59.751Z</time></trkpt><trkpt lat="9.900073" lon="-84.0976156"><ele>1124.0</ele><time>2026-04-07T22:19:00.752Z</time></trkpt><trkpt lat="9.9001026" lon="-84.0974957"><ele>1124.0</ele><time>2026-04-07T22:19:02.752Z</time></trkpt><trkpt lat="9.90013" lon="-84.0973677"><ele>1123.5714285714287</ele><time>2026-04-07T22:19:04.752Z</time></trkpt><trkpt lat="9.900145" lon="-84.0973008"><ele>1123.142857142857</ele><time>2026-04-07T22:19:05.751Z</time></trkpt><trkpt lat="9.9001605" lon="-84.0972363"><ele>1122.7142857142858</ele><time>2026-04-07T22:19:06.752Z</time></trkpt><trkpt lat="9.9001781" lon="-84.0971632"><ele>1122.2857142857142</ele><time>2026-04-07T22:19:07.752Z</time></trkpt><trkpt lat="9.9001975" lon="-84.097086"><ele>1121.857142857143</ele><time>2026-04-07T22:19:08.752Z</time></trkpt><trkpt lat="9.9002156" lon="-84.0970143"><ele>1121.4285714285716</ele><time>2026-04-07T22:19:09.751Z</time></trkpt><trkpt lat="9.9002315" lon="-84.096942"><ele>1121.0</ele><time>2026-04-07T22:19:10.75Z</time></trkpt><trkpt lat="9.9002528" lon="-84.0968649"><ele>1121.0</ele><time>2026-04-07T22:19:11.752Z</time></trkpt><trkpt lat="9.9002748" lon="-84.0967762"><ele>1121.0</ele><time>2026-04-07T22:19:12.752Z</time></trkpt><trkpt lat="9.9002907" lon="-84.0966937"><ele>1121.0</ele><time>2026-04-07T22:19:13.751Z</time></trkpt><trkpt lat="9.9002916" lon="-84.0966131"><ele>1121.0</ele><time>2026-04-07T22:19:14.751Z</time></trkpt><trkpt lat="9.9003027" lon="-84.0965266"><ele>1121.0</ele><time>2026-04-07T22:19:15.753Z</time></trkpt><trkpt lat="9.9003068" lon="-84.0964348"><ele>1121.0</ele><time>2026-04-07T22:19:16.752Z</time></trkpt><trkpt lat="9.9003047" lon="-84.0963482"><ele>1120.3333333333335</ele><time>2026-04-07T22:19:17.752Z</time></trkpt><trkpt lat="9.9003065" lon="-84.0962666"><ele>1119.6666666666667</ele><time>2026-04-07T22:19:18.751Z</time></trkpt><trkpt lat="9.9003085" lon="-84.0961841"><ele>1119.0</ele><time>2026-04-07T22:19:19.751Z</time></trkpt><trkpt lat="9.900312" lon="-84.0961094"><ele>1118.3333333333333</ele><time>2026-04-07T22:19:20.753Z</time></trkpt><trkpt lat="9.9003143" lon="-84.0960273"><ele>1117.6666666666665</ele><time>2026-04-07T22:19:21.752Z</time></trkpt><trkpt lat="9.9003186" lon="-84.0959432"><ele>1117.0</ele><time>2026-04-07T22:19:22.752Z</time></trkpt><trkpt lat="9.9003234" lon="-84.0958642"><ele>1117.0000000000002</ele><time>2026-04-07T22:19:23.751Z</time></trkpt><trkpt lat="9.9003325" lon="-84.095788"><ele>1117.0</ele><time>2026-04-07T22:19:24.751Z</time></trkpt><trkpt lat="9.900344" lon="-84.0957175"><ele>1117.0</ele><time>2026-04-07T22:19:25.753Z</time></trkpt><trkpt lat="9.9003578" lon="-84.0956435"><ele>1117.0</ele><time>2026-04-07T22:19:26.752Z</time></trkpt><trkpt lat="9.9003737" lon="-84.0955707"><ele>1117.0</ele><time>2026-04-07T22:19:27.751Z</time></trkpt><trkpt lat="9.9003875" lon="-84.0955019"><ele>1117.0000000000002</ele><time>2026-04-07T22:19:28.751Z</time></trkpt><trkpt lat="9.9004002" lon="-84.0954317"><ele>1117.0</ele><time>2026-04-07T22:19:29.751Z</time></trkpt><trkpt lat="9.9004168" lon="-84.0953095"><ele>1116.25</ele><time>2026-04-07T22:19:31.752Z</time></trkpt><trkpt lat="9.900435" lon="-84.0951974"><ele>1115.5</ele><time>2026-04-07T22:19:33.752Z</time></trkpt><trkpt lat="9.9004623" lon="-84.0950607"><ele>1114.75</ele><time>2026-04-07T22:19:35.751Z</time></trkpt><trkpt lat="9.9004474" lon="-84.0949343"><ele>1114.0</ele><time>2026-04-07T22:19:37.752Z</time></trkpt><trkpt lat="9.9004147" lon="-84.0948617"><ele>1113.8333333333333</ele><time>2026-04-07T22:19:38.752Z</time></trkpt><trkpt lat="9.9003723" lon="-84.0947998"><ele>1113.6666666666665</ele><time>2026-04-07T22:19:39.751Z</time></trkpt><trkpt lat="9.9003337" lon="-84.094729"><ele>1113.5</ele><time>2026-04-07T22:19:40.752Z</time></trkpt><trkpt lat="9.9003052" lon="-84.0946603"><ele>1113.3333333333333</ele><time>2026-04-07T22:19:41.752Z</time></trkpt><trkpt lat="9.9002732" lon="-84.0945849"><ele>1113.1666666666667</ele><time>2026-04-07T22:19:42.752Z</time></trkpt><trkpt lat="9.9002324" lon="-84.0944966"><ele>1113.0</ele><time>2026-04-07T22:19:43.752Z</time></trkpt><trkpt lat="9.9001906" lon="-84.0944138"><ele>1113.0</ele><time>2026-04-07T22:19:44.751Z</time></trkpt><trkpt lat="9.9001508" lon="-84.094341"><ele>1113.0</ele><time>2026-04-07T22:19:45.751Z</time></trkpt><trkpt lat="9.9001142" lon="-84.0942726"><ele>1113.0</ele><time>2026-04-07T22:19:46.752Z</time></trkpt><trkpt lat="9.9000737" lon="-84.0942142"><ele>1113.0</ele><time>2026-04-07T22:19:47.752Z</time></trkpt><trkpt lat="9.9000361" lon="-84.0941538"><ele>1113.0</ele><time>2026-04-07T22:19:48.75Z</time></trkpt><trkpt lat="9.8999962" lon="-84.0941029"><ele>1113.0</ele><time>2026-04-07T22:19:49.752Z</time></trkpt><trkpt lat="9.8999457" lon="-84.0940577"><ele>1113.0</ele><time>2026-04-07T22:19:50.751Z</time></trkpt><trkpt lat="9.8998907" lon="-84.094014"><ele>1113.0</ele><time>2026-04-07T22:19:51.752Z</time></trkpt><trkpt lat="9.8998381" lon="-84.0939786"><ele>1113.0</ele><time>2026-04-07T22:19:52.752Z</time></trkpt><trkpt lat="9.8997332" lon="-84.0939312"><ele>1113.0</ele><time>2026-04-07T22:19:54.752Z</time></trkpt><trkpt lat="9.899643" lon="-84.0938887"><ele>1113.0</ele><time>2026-04-07T22:19:56.753Z</time></trkpt><trkpt lat="9.8995744" lon="-84.0938674"><ele>1113.0</ele><time>2026-04-07T22:19:58.752Z</time></trkpt><trkpt lat="9.899494" lon="-84.0938404"><ele>1113.0</ele><time>2026-04-07T22:20:01.752Z</time></trkpt><trkpt lat="9.8994213" lon="-84.0938119"><ele>1113.0</ele><time>2026-04-07T22:20:03.753Z</time></trkpt><trkpt lat="9.8993231" lon="-84.0937757"><ele>1113.0</ele><time>2026-04-07T22:20:05.752Z</time></trkpt><trkpt lat="9.8992152" lon="-84.0937264"><ele>1113.0</ele><time>2026-04-07T22:20:07.752Z</time></trkpt><trkpt lat="9.8991566" lon="-84.0936989"><ele>1113.0</ele><time>2026-04-07T22:20:08.752Z</time></trkpt><trkpt lat="9.8990991" lon="-84.0936716"><ele>1113.0</ele><time>2026-04-07T22:20:09.752Z</time></trkpt><trkpt lat="9.8990151" lon="-84.0936101"><ele>1113.4285714285713</ele><time>2026-04-07T22:20:11.752Z</time></trkpt><trkpt lat="9.8989553" lon="-84.0935731"><ele>1113.857142857143</ele><time>2026-04-07T22:20:13.75Z</time></trkpt><trkpt lat="9.8988941" lon="-84.0935198"><ele>1114.2857142857142</ele><time>2026-04-07T22:20:15.751Z</time></trkpt><trkpt lat="9.898845" lon="-84.0934788"><ele>1114.7142857142858</ele><time>2026-04-07T22:20:16.752Z</time></trkpt><trkpt lat="9.8987848" lon="-84.0934394"><ele>1115.142857142857</ele><time>2026-04-07T22:20:17.752Z</time></trkpt><trkpt lat="9.8987222" lon="-84.0933885"><ele>1115.5714285714284</ele><time>2026-04-07T22:20:18.752Z</time></trkpt><trkpt lat="9.8986642" lon="-84.0933323"><ele>1116.0</ele><time>2026-04-07T22:20:19.752Z</time></trkpt><trkpt lat="9.8986113" lon="-84.0932748"><ele>1115.8333333333333</ele><time>2026-04-07T22:20:20.752Z</time></trkpt><trkpt lat="9.8985573" lon="-84.0932315"><ele>1115.6666666666667</ele><time>2026-04-07T22:20:21.752Z</time></trkpt><trkpt lat="9.8985107" lon="-84.093183"><ele>1115.5</ele><time>2026-04-07T22:20:22.752Z</time></trkpt><trkpt lat="9.8984594" lon="-84.0931358"><ele>1115.3333333333335</ele><time>2026-04-07T22:20:23.752Z</time></trkpt><trkpt lat="9.8983806" lon="-84.0930689"><ele>1115.1666666666667</ele><time>2026-04-07T22:20:25.751Z</time></trkpt><trkpt lat="9.8983163" lon="-84.0930024"><ele>1115.0</ele><time>2026-04-07T22:20:28.752Z</time></trkpt><trkpt lat="9.8982329" lon="-84.092928"><ele>1115.0</ele><time>2026-04-07T22:20:30.751Z</time></trkpt><trkpt lat="9.8981539" lon="-84.0928514"><ele>1115.0</ele><time>2026-04-07T22:20:32.752Z</time></trkpt><trkpt lat="9.898064" lon="-84.0927628"><ele>1115.0</ele><time>2026-04-07T22:20:34.751Z</time></trkpt><trkpt lat="9.8979897" lon="-84.0926951"><ele>1115.0</ele><time>2026-04-07T22:20:36.752Z</time></trkpt><trkpt lat="9.8979284" lon="-84.0926415"><ele>1115.0</ele><time>2026-04-07T22:20:44.752Z</time></trkpt><trkpt lat="9.8978616" lon="-84.0925715"><ele>1115.0</ele><time>2026-04-07T22:20:47.752Z</time></trkpt><trkpt lat="9.8978212" lon="-84.0925204"><ele>1115.0</ele><time>2026-04-07T22:20:49.751Z</time></trkpt><trkpt lat="9.8977784" lon="-84.0924631"><ele>1115.0</ele><time>2026-04-07T22:20:53.752Z</time></trkpt><trkpt lat="9.8977457" lon="-84.0923986"><ele>1115.0</ele><time>2026-04-07T22:21:01.752Z</time></trkpt><trkpt lat="9.8985114" lon="-84.0921796"><ele>1114.8</ele><time>2026-04-07T22:21:35.752Z</time></trkpt><trkpt lat="9.8985967" lon="-84.0921796"><ele>1114.6</ele><time>2026-04-07T22:21:37.751Z</time></trkpt><trkpt lat="9.8987659" lon="-84.0921833"><ele>1114.4</ele><time>2026-04-07T22:21:41.751Z</time></trkpt><trkpt lat="9.8988622" lon="-84.0921918"><ele>1114.2</ele><time>2026-04-07T22:21:43.752Z</time></trkpt><trkpt lat="9.8989363" lon="-84.0921961"><ele>1114.0</ele><time>2026-04-07T22:21:45.751Z</time></trkpt><trkpt lat="9.8990158" lon="-84.0922019"><ele>1114.0</ele><time>2026-04-07T22:21:47.751Z</time></trkpt><trkpt lat="9.8990797" lon="-84.0921515"><ele>1114.0</ele><time>2026-04-07T22:21:49.752Z</time></trkpt><trkpt lat="9.899095" lon="-84.0920707"><ele>1114.0</ele><time>2026-04-07T22:21:51.752Z</time></trkpt><trkpt lat="9.8991064" lon="-84.0919939"><ele>1114.0</ele><time>2026-04-07T22:21:53.751Z</time></trkpt><trkpt lat="9.8991489" lon="-84.0919332"><ele>1114.0</ele><time>2026-04-07T22:21:55.751Z</time></trkpt><trkpt lat="9.8992205" lon="-84.0919015"><ele>1114.0</ele><time>2026-04-07T22:21:57.75Z</time></trkpt><trkpt lat="9.8992836" lon="-84.0918816"><ele>1111.0</ele><time>2026-04-07T22:21:59.752Z</time></trkpt></trkseg></trk></gpx>